<?xml version="1.0" encoding="UTF-8" standalone="no" ?>
<gpx xmlns="http://www.topografix.com/GPX/1/1" xmlns:xsi="http://www.w3.org/2001/XMLSchema-instance" xsi:schemaLocation="http://www.topografix.com/GPX/1/1 http://www.topografix.com/GPX/1/1/gpx.xsd" version="1.1" creator="VisuGPX - https://www.visugpx.com">
  <metadata>
    <name>PAINBLANC - Marche de printemps 2022 - 17 kms</name>
  </metadata>
  <trk>
    <name><![CDATA[PAINBLANC - Marche de printemps 2022 - 17 kms]]></name>
    <extensions>
      <line xmlns="http://www.topografix.com/GPX/gpx_style/0/2">
        <color>ff0000</color>
        <width>4</width>
          <extensions>
            <sens>1</sens>
          </extensions>
      </line>
    </extensions>
    <trkseg>
      <trkpt lat="47.14923" lon="4.6257">
        <ele>407.14614314201</ele>
        <time>2022-03-23T17:21:36.000Z</time>
      </trkpt>
      <trkpt lat="47.14918" lon="4.62602">
        <ele>407.38157016852</ele>
        <time>2022-03-23T17:21:36.030Z</time>
      </trkpt>
      <trkpt lat="47.14913" lon="4.62624">
        <ele>407.56851127223</ele>
        <time>2022-03-23T17:21:36.081Z</time>
      </trkpt>
      <trkpt lat="47.14899" lon="4.6265">
        <ele>407.81163138996</ele>
        <time>2022-03-23T17:21:36.162Z</time>
      </trkpt>
      <trkpt lat="47.14881" lon="4.62672">
        <ele>408.22670150036</ele>
        <time>2022-03-23T17:21:36.274Z</time>
      </trkpt>
      <trkpt lat="47.14872" lon="4.62675">
        <ele>408.63840464645</ele>
        <time>2022-03-23T17:21:36.399Z</time>
      </trkpt>
      <trkpt lat="47.14859" lon="4.62674">
        <ele>409.07404255495</ele>
        <time>2022-03-23T17:21:36.541Z</time>
      </trkpt>
      <trkpt lat="47.14835" lon="4.62679">
        <ele>409.66929107089</ele>
        <time>2022-03-23T17:21:36.715Z</time>
      </trkpt>
      <trkpt lat="47.14787" lon="4.62707">
        <ele>410.3166116706</ele>
        <time>2022-03-23T17:21:36.958Z</time>
      </trkpt>
      <trkpt lat="47.14751" lon="4.62724">
        <ele>410.96975015479</ele>
        <time>2022-03-23T17:21:37.252Z</time>
      </trkpt>
      <trkpt lat="47.14724" lon="4.62733">
        <ele>411.7866651254</ele>
        <time>2022-03-23T17:21:37.583Z</time>
      </trkpt>
      <trkpt lat="47.14702" lon="4.62737">
        <ele>412.6844605008</ele>
        <time>2022-03-23T17:21:37.943Z</time>
      </trkpt>
      <trkpt lat="47.147" lon="4.62743">
        <ele>413.6327277732</ele>
        <time>2022-03-23T17:21:38.309Z</time>
      </trkpt>
      <trkpt lat="47.14683" lon="4.62752">
        <ele>414.67858557349</ele>
        <time>2022-03-23T17:21:38.700Z</time>
      </trkpt>
      <trkpt lat="47.14667" lon="4.6276">
        <ele>415.84898141437</ele>
        <time>2022-03-23T17:21:39.113Z</time>
      </trkpt>
      <trkpt lat="47.14664" lon="4.62756">
        <ele>416.95550771644</ele>
        <time>2022-03-23T17:21:39.531Z</time>
      </trkpt>
      <trkpt lat="47.14661" lon="4.62759">
        <ele>418.14543655669</ele>
        <time>2022-03-23T17:21:39.954Z</time>
      </trkpt>
      <trkpt lat="47.1465" lon="4.62775">
        <ele>419.63269068215</ele>
        <time>2022-03-23T17:21:40.398Z</time>
      </trkpt>
      <trkpt lat="47.14639" lon="4.62808">
        <ele>421.37989094695</ele>
        <time>2022-03-23T17:21:40.875Z</time>
      </trkpt>
      <trkpt lat="47.14639" lon="4.62825">
        <ele>422.99811932295</ele>
        <time>2022-03-23T17:21:41.368Z</time>
      </trkpt>
      <trkpt lat="47.14642" lon="4.6284">
        <ele>424.56952942428</ele>
        <time>2022-03-23T17:21:41.875Z</time>
      </trkpt>
      <trkpt lat="47.14645" lon="4.62859">
        <ele>426.19901743364</ele>
        <time>2022-03-23T17:21:42.400Z</time>
      </trkpt>
      <trkpt lat="47.14658" lon="4.62917">
        <ele>428.08638831306</ele>
        <time>2022-03-23T17:21:42.980Z</time>
      </trkpt>
      <trkpt lat="47.1466" lon="4.62933">
        <ele>429.61875961954</ele>
        <time>2022-03-23T17:21:43.575Z</time>
      </trkpt>
      <trkpt lat="47.14658" lon="4.62941">
        <ele>431.05485377268</ele>
        <time>2022-03-23T17:21:44.178Z</time>
      </trkpt>
      <trkpt lat="47.14655" lon="4.62948">
        <ele>432.40223871722</ele>
        <time>2022-03-23T17:21:44.789Z</time>
      </trkpt>
      <trkpt lat="47.1465" lon="4.6295">
        <ele>433.66155381104</ele>
        <time>2022-03-23T17:21:45.406Z</time>
      </trkpt>
      <trkpt lat="47.14642" lon="4.62949">
        <ele>434.85831797444</ele>
        <time>2022-03-23T17:21:46.034Z</time>
      </trkpt>
      <trkpt lat="47.14618" lon="4.62938">
        <ele>436.03521970466</ele>
        <time>2022-03-23T17:21:46.696Z</time>
      </trkpt>
      <trkpt lat="47.14605" lon="4.62932">
        <ele>437.13324229462</ele>
        <time>2022-03-23T17:21:47.376Z</time>
      </trkpt>
      <trkpt lat="47.14591" lon="4.6293">
        <ele>438.22386131777</ele>
        <time>2022-03-23T17:21:48.075Z</time>
      </trkpt>
      <trkpt lat="47.14577" lon="4.6293">
        <ele>439.26629573574</ele>
        <time>2022-03-23T17:21:48.792Z</time>
      </trkpt>
      <trkpt lat="47.14555" lon="4.62942">
        <ele>440.39117002893</ele>
        <time>2022-03-23T17:21:49.541Z</time>
      </trkpt>
      <trkpt lat="47.1454" lon="4.62956">
        <ele>441.50944588289</ele>
        <time>2022-03-23T17:21:50.313Z</time>
      </trkpt>
      <trkpt lat="47.14523" lon="4.62964">
        <ele>442.62858880304</ele>
        <time>2022-03-23T17:21:51.109Z</time>
      </trkpt>
      <trkpt lat="47.14505" lon="4.62968">
        <ele>443.74850008659</ele>
        <time>2022-03-23T17:21:51.929Z</time>
      </trkpt>
      <trkpt lat="47.14491" lon="4.62974">
        <ele>444.83399591398</ele>
        <time>2022-03-23T17:21:52.769Z</time>
      </trkpt>
      <trkpt lat="47.14462" lon="4.62988">
        <ele>445.93792604658</ele>
        <time>2022-03-23T17:21:53.650Z</time>
      </trkpt>
      <trkpt lat="47.14438" lon="4.63004">
        <ele>447.09331760474</ele>
        <time>2022-03-23T17:21:54.566Z</time>
      </trkpt>
      <trkpt lat="47.14427" lon="4.63015">
        <ele>448.06544449867</ele>
        <time>2022-03-23T17:21:55.500Z</time>
      </trkpt>
      <trkpt lat="47.14405" lon="4.63038">
        <ele>449.09802900617</ele>
        <time>2022-03-23T17:21:56.470Z</time>
      </trkpt>
      <trkpt lat="47.14384" lon="4.6307">
        <ele>450.06988216346</ele>
        <time>2022-03-23T17:21:57.480Z</time>
      </trkpt>
      <trkpt lat="47.14368" lon="4.63102">
        <ele>451.01279006899</ele>
        <time>2022-03-23T17:21:58.526Z</time>
      </trkpt>
      <trkpt lat="47.1435" lon="4.63147">
        <ele>452.08606900535</ele>
        <time>2022-03-23T17:21:59.620Z</time>
      </trkpt>
      <trkpt lat="47.14329" lon="4.63201">
        <ele>453.02379716279</ele>
        <time>2022-03-23T17:22:00.770Z</time>
      </trkpt>
      <trkpt lat="47.14308" lon="4.63257">
        <ele>453.9817208015</ele>
        <time>2022-03-23T17:22:01.978Z</time>
      </trkpt>
      <trkpt lat="47.14282" lon="4.63319">
        <ele>455.10113308154</ele>
        <time>2022-03-23T17:22:03.253Z</time>
      </trkpt>
      <trkpt lat="47.14277" lon="4.63329">
        <ele>456.07251236914</ele>
        <time>2022-03-23T17:22:04.539Z</time>
      </trkpt>
      <trkpt lat="47.14262" lon="4.63371">
        <ele>457.07849302597</ele>
        <time>2022-03-23T17:22:05.868Z</time>
      </trkpt>
      <trkpt lat="47.14256" lon="4.63397">
        <ele>458.11633876733</ele>
        <time>2022-03-23T17:22:07.222Z</time>
      </trkpt>
      <trkpt lat="47.14247" lon="4.63434">
        <ele>459.20252626668</ele>
        <time>2022-03-23T17:22:08.612Z</time>
      </trkpt>
      <trkpt lat="47.14222" lon="4.63512">
        <ele>460.36754676721</ele>
        <time>2022-03-23T17:22:10.080Z</time>
      </trkpt>
      <trkpt lat="47.14207" lon="4.63558">
        <ele>461.45050400665</ele>
        <time>2022-03-23T17:22:11.595Z</time>
      </trkpt>
      <trkpt lat="47.1419" lon="4.63626">
        <ele>462.63525332792</ele>
        <time>2022-03-23T17:22:13.176Z</time>
      </trkpt>
      <trkpt lat="47.14176" lon="4.63695">
        <ele>463.85242308399</ele>
        <time>2022-03-23T17:22:14.822Z</time>
      </trkpt>
      <trkpt lat="47.14162" lon="4.63746">
        <ele>465.02586471924</ele>
        <time>2022-03-23T17:22:16.518Z</time>
      </trkpt>
      <trkpt lat="47.14103" lon="4.63915">
        <ele>466.11535247378</ele>
        <time>2022-03-23T17:22:18.387Z</time>
      </trkpt>
      <trkpt lat="47.1403" lon="4.64129">
        <ele>467.12378448703</ele>
        <time>2022-03-23T17:22:20.474Z</time>
      </trkpt>
      <trkpt lat="47.14016" lon="4.64184">
        <ele>468.42924665113</ele>
        <time>2022-03-23T17:22:22.614Z</time>
      </trkpt>
      <trkpt lat="47.1401" lon="4.64237">
        <ele>469.76414718391</ele>
        <time>2022-03-23T17:22:24.803Z</time>
      </trkpt>
      <trkpt lat="47.14008" lon="4.64264">
        <ele>471.19096571148</ele>
        <time>2022-03-23T17:22:27.017Z</time>
      </trkpt>
      <trkpt lat="47.14009" lon="4.64314">
        <ele>472.66992522409</ele>
        <time>2022-03-23T17:22:29.276Z</time>
      </trkpt>
      <trkpt lat="47.14009" lon="4.64351">
        <ele>474.36678590765</ele>
        <time>2022-03-23T17:22:31.569Z</time>
      </trkpt>
      <trkpt lat="47.14011" lon="4.64406">
        <ele>476.30638573492</ele>
        <time>2022-03-23T17:22:33.912Z</time>
      </trkpt>
      <trkpt lat="47.14012" lon="4.64438">
        <ele>478.35808516342</ele>
        <time>2022-03-23T17:22:36.284Z</time>
      </trkpt>
      <trkpt lat="47.14019" lon="4.64481">
        <ele>480.71435503559</ele>
        <time>2022-03-23T17:22:38.697Z</time>
      </trkpt>
      <trkpt lat="47.14035" lon="4.64537">
        <ele>483.54663121056</ele>
        <time>2022-03-23T17:22:41.165Z</time>
      </trkpt>
      <trkpt lat="47.14038" lon="4.64555">
        <ele>485.92968831524</ele>
        <time>2022-03-23T17:22:43.650Z</time>
      </trkpt>
      <trkpt lat="47.14041" lon="4.64608">
        <ele>488.20180287096</ele>
        <time>2022-03-23T17:22:46.183Z</time>
      </trkpt>
      <trkpt lat="47.14047" lon="4.64637">
        <ele>490.31436893669</ele>
        <time>2022-03-23T17:22:48.744Z</time>
      </trkpt>
      <trkpt lat="47.14057" lon="4.64683">
        <ele>492.54519441977</ele>
        <time>2022-03-23T17:22:51.349Z</time>
      </trkpt>
      <trkpt lat="47.14047" lon="4.64677">
        <ele>494.64503608983</ele>
        <time>2022-03-23T17:22:53.968Z</time>
      </trkpt>
      <trkpt lat="47.14027" lon="4.64674">
        <ele>496.83208606071</ele>
        <time>2022-03-23T17:22:56.614Z</time>
      </trkpt>
      <trkpt lat="47.14013" lon="4.64676">
        <ele>498.9907743121</ele>
        <time>2022-03-23T17:22:59.279Z</time>
      </trkpt>
      <trkpt lat="47.14005" lon="4.64678">
        <ele>501.1023162841</ele>
        <time>2022-03-23T17:23:01.955Z</time>
      </trkpt>
      <trkpt lat="47.14005" lon="4.64678">
        <ele>503.09730350564</ele>
        <time>2022-03-23T17:23:04.631Z</time>
      </trkpt>
      <trkpt lat="47.14002" lon="4.64679">
        <ele>508.97967735566</ele>
        <time>2022-03-23T17:23:07.311Z</time>
      </trkpt>
      <trkpt lat="47.13965" lon="4.64672">
        <ele>511.10327940059</ele>
        <time>2022-03-23T17:23:10.040Z</time>
      </trkpt>
      <trkpt lat="47.13953" lon="4.64673">
        <ele>513.01386681206</ele>
        <time>2022-03-23T17:23:12.785Z</time>
      </trkpt>
      <trkpt lat="47.13934" lon="4.64683">
        <ele>514.9698137094</ele>
        <time>2022-03-23T17:23:15.557Z</time>
      </trkpt>
      <trkpt lat="47.139" lon="4.64726">
        <ele>517.35378483981</ele>
        <time>2022-03-23T17:23:18.389Z</time>
      </trkpt>
      <trkpt lat="47.13892" lon="4.64743">
        <ele>519.45983983418</ele>
        <time>2022-03-23T17:23:21.240Z</time>
      </trkpt>
      <trkpt lat="47.13888" lon="4.64748">
        <ele>521.35197116509</ele>
        <time>2022-03-23T17:23:24.098Z</time>
      </trkpt>
      <trkpt lat="47.13863" lon="4.64761">
        <ele>523.21158696874</ele>
        <time>2022-03-23T17:23:26.991Z</time>
      </trkpt>
      <trkpt lat="47.1384" lon="4.64777">
        <ele>525.07685472606</ele>
        <time>2022-03-23T17:23:29.918Z</time>
      </trkpt>
      <trkpt lat="47.13831" lon="4.6479">
        <ele>526.75722904257</ele>
        <time>2022-03-23T17:23:32.862Z</time>
      </trkpt>
      <trkpt lat="47.13808" lon="4.6481">
        <ele>528.35908085835</ele>
        <time>2022-03-23T17:23:35.842Z</time>
      </trkpt>
      <trkpt lat="47.13786" lon="4.64825">
        <ele>529.81723155046</ele>
        <time>2022-03-23T17:23:38.854Z</time>
      </trkpt>
      <trkpt lat="47.1378" lon="4.64832">
        <ele>531.13748755773</ele>
        <time>2022-03-23T17:23:41.877Z</time>
      </trkpt>
      <trkpt lat="47.13778" lon="4.64833">
        <ele>534.30059746409</ele>
        <time>2022-03-23T17:23:44.902Z</time>
      </trkpt>
      <trkpt lat="47.13774" lon="4.64844">
        <ele>535.18527370773</ele>
        <time>2022-03-23T17:23:47.939Z</time>
      </trkpt>
      <trkpt lat="47.13777" lon="4.64842">
        <ele>535.88076699888</ele>
        <time>2022-03-23T17:23:50.980Z</time>
      </trkpt>
      <trkpt lat="47.13792" lon="4.64841">
        <ele>536.51583167915</ele>
        <time>2022-03-23T17:23:54.041Z</time>
      </trkpt>
      <trkpt lat="47.13834" lon="4.64846">
        <ele>537.14914579677</ele>
        <time>2022-03-23T17:23:57.158Z</time>
      </trkpt>
      <trkpt lat="47.13846" lon="4.64849">
        <ele>537.51008885799</ele>
        <time>2022-03-23T17:24:00.291Z</time>
      </trkpt>
      <trkpt lat="47.13861" lon="4.64862">
        <ele>537.76736055842</ele>
        <time>2022-03-23T17:24:03.448Z</time>
      </trkpt>
      <trkpt lat="47.13876" lon="4.64876">
        <ele>537.85677960228</ele>
        <time>2022-03-23T17:24:06.628Z</time>
      </trkpt>
      <trkpt lat="47.13935" lon="4.64935">
        <ele>537.81055420198</ele>
        <time>2022-03-23T17:24:09.904Z</time>
      </trkpt>
      <trkpt lat="47.13966" lon="4.64964">
        <ele>537.68732054672</ele>
        <time>2022-03-23T17:24:13.229Z</time>
      </trkpt>
      <trkpt lat="47.13982" lon="4.64976">
        <ele>537.3608044627</ele>
        <time>2022-03-23T17:24:16.578Z</time>
      </trkpt>
      <trkpt lat="47.13998" lon="4.64987">
        <ele>536.84203876188</ele>
        <time>2022-03-23T17:24:19.950Z</time>
      </trkpt>
      <trkpt lat="47.14011" lon="4.64991">
        <ele>536.17929104176</ele>
        <time>2022-03-23T17:24:23.340Z</time>
      </trkpt>
      <trkpt lat="47.14041" lon="4.64995">
        <ele>535.38357592382</ele>
        <time>2022-03-23T17:24:26.770Z</time>
      </trkpt>
      <trkpt lat="47.14058" lon="4.64998">
        <ele>534.51159742047</ele>
        <time>2022-03-23T17:24:30.223Z</time>
      </trkpt>
      <trkpt lat="47.14065" lon="4.65003">
        <ele>533.59879899381</ele>
        <time>2022-03-23T17:24:33.686Z</time>
      </trkpt>
      <trkpt lat="47.14074" lon="4.65011">
        <ele>532.61033554616</ele>
        <time>2022-03-23T17:24:37.163Z</time>
      </trkpt>
      <trkpt lat="47.14109" lon="4.65065">
        <ele>531.19171884823</ele>
        <time>2022-03-23T17:24:40.708Z</time>
      </trkpt>
      <trkpt lat="47.14115" lon="4.65077">
        <ele>530.12631218789</ele>
        <time>2022-03-23T17:24:44.267Z</time>
      </trkpt>
      <trkpt lat="47.14118" lon="4.65087">
        <ele>529.08948701319</ele>
        <time>2022-03-23T17:24:47.836Z</time>
      </trkpt>
      <trkpt lat="47.14121" lon="4.65105">
        <ele>528.11481119296</ele>
        <time>2022-03-23T17:24:51.422Z</time>
      </trkpt>
      <trkpt lat="47.14118" lon="4.6514">
        <ele>527.14244339701</ele>
        <time>2022-03-23T17:24:55.040Z</time>
      </trkpt>
      <trkpt lat="47.14116" lon="4.65157">
        <ele>526.19328412827</ele>
        <time>2022-03-23T17:24:58.673Z</time>
      </trkpt>
      <trkpt lat="47.14118" lon="4.65164">
        <ele>525.30341749964</ele>
        <time>2022-03-23T17:25:02.313Z</time>
      </trkpt>
      <trkpt lat="47.14121" lon="4.65168">
        <ele>524.49422470633</ele>
        <time>2022-03-23T17:25:05.959Z</time>
      </trkpt>
      <trkpt lat="47.1413" lon="4.65174">
        <ele>523.71341002573</ele>
        <time>2022-03-23T17:25:09.618Z</time>
      </trkpt>
      <trkpt lat="47.14137" lon="4.65172">
        <ele>523.05605205135</ele>
        <time>2022-03-23T17:25:13.286Z</time>
      </trkpt>
      <trkpt lat="47.14146" lon="4.65167">
        <ele>522.47697261291</ele>
        <time>2022-03-23T17:25:16.967Z</time>
      </trkpt>
      <trkpt lat="47.14151" lon="4.65164">
        <ele>522.00876897504</ele>
        <time>2022-03-23T17:25:20.656Z</time>
      </trkpt>
      <trkpt lat="47.14153" lon="4.65163">
        <ele>521.17411225436</ele>
        <time>2022-03-23T17:25:24.347Z</time>
      </trkpt>
      <trkpt lat="47.1416" lon="4.65161">
        <ele>520.96384715061</ele>
        <time>2022-03-23T17:25:28.048Z</time>
      </trkpt>
      <trkpt lat="47.14158" lon="4.65199">
        <ele>520.80345167633</ele>
        <time>2022-03-23T17:25:31.784Z</time>
      </trkpt>
      <trkpt lat="47.14158" lon="4.65224">
        <ele>520.74169539953</ele>
        <time>2022-03-23T17:25:35.542Z</time>
      </trkpt>
      <trkpt lat="47.1416" lon="4.65255">
        <ele>520.69280222442</ele>
        <time>2022-03-23T17:25:39.329Z</time>
      </trkpt>
      <trkpt lat="47.14164" lon="4.65293">
        <ele>520.67849141107</ele>
        <time>2022-03-23T17:25:43.151Z</time>
      </trkpt>
      <trkpt lat="47.14166" lon="4.65304">
        <ele>520.64400078299</ele>
        <time>2022-03-23T17:25:46.983Z</time>
      </trkpt>
      <trkpt lat="47.14164" lon="4.65318">
        <ele>520.58037119805</ele>
        <time>2022-03-23T17:25:50.828Z</time>
      </trkpt>
      <trkpt lat="47.14161" lon="4.65333">
        <ele>520.41021603673</ele>
        <time>2022-03-23T17:25:54.687Z</time>
      </trkpt>
      <trkpt lat="47.14147" lon="4.65371">
        <ele>520.25870550027</ele>
        <time>2022-03-23T17:25:58.586Z</time>
      </trkpt>
      <trkpt lat="47.14124" lon="4.6542">
        <ele>519.9583212835</ele>
        <time>2022-03-23T17:26:02.539Z</time>
      </trkpt>
      <trkpt lat="47.14089" lon="4.65496">
        <ele>519.46411759207</ele>
        <time>2022-03-23T17:26:06.575Z</time>
      </trkpt>
      <trkpt lat="47.14073" lon="4.65528">
        <ele>518.71641024545</ele>
        <time>2022-03-23T17:26:10.647Z</time>
      </trkpt>
      <trkpt lat="47.14066" lon="4.65552">
        <ele>517.81236915508</ele>
        <time>2022-03-23T17:26:14.743Z</time>
      </trkpt>
      <trkpt lat="47.14056" lon="4.65582">
        <ele>516.66481043339</ele>
        <time>2022-03-23T17:26:18.869Z</time>
      </trkpt>
      <trkpt lat="47.14034" lon="4.65634">
        <ele>515.29297145066</ele>
        <time>2022-03-23T17:26:23.051Z</time>
      </trkpt>
      <trkpt lat="47.14013" lon="4.65676">
        <ele>513.74337612081</ele>
        <time>2022-03-23T17:26:27.281Z</time>
      </trkpt>
      <trkpt lat="47.14006" lon="4.65693">
        <ele>512.0795544942</ele>
        <time>2022-03-23T17:26:31.529Z</time>
      </trkpt>
      <trkpt lat="47.14004" lon="4.65708">
        <ele>510.27982903307</ele>
        <time>2022-03-23T17:26:35.791Z</time>
      </trkpt>
      <trkpt lat="47.14" lon="4.6576">
        <ele>508.17633069283</ele>
        <time>2022-03-23T17:26:40.100Z</time>
      </trkpt>
      <trkpt lat="47.14003" lon="4.65797">
        <ele>506.04770122756</ele>
        <time>2022-03-23T17:26:44.443Z</time>
      </trkpt>
      <trkpt lat="47.14004" lon="4.65839">
        <ele>503.81691363653</ele>
        <time>2022-03-23T17:26:48.824Z</time>
      </trkpt>
      <trkpt lat="47.14001" lon="4.65892">
        <ele>501.51539375372</ele>
        <time>2022-03-23T17:26:53.254Z</time>
      </trkpt>
      <trkpt lat="47.13992" lon="4.65944">
        <ele>499.19604429449</ele>
        <time>2022-03-23T17:26:57.733Z</time>
      </trkpt>
      <trkpt lat="47.13977" lon="4.66019">
        <ele>496.88954343431</ele>
        <time>2022-03-23T17:27:02.283Z</time>
      </trkpt>
      <trkpt lat="47.13964" lon="4.66068">
        <ele>494.75818495272</ele>
        <time>2022-03-23T17:27:06.881Z</time>
      </trkpt>
      <trkpt lat="47.13907" lon="4.66253">
        <ele>492.38722133351</ele>
        <time>2022-03-23T17:27:11.663Z</time>
      </trkpt>
      <trkpt lat="47.13897" lon="4.66315">
        <ele>490.51548462811</ele>
        <time>2022-03-23T17:27:16.503Z</time>
      </trkpt>
      <trkpt lat="47.13892" lon="4.66367">
        <ele>488.94247376871</ele>
        <time>2022-03-23T17:27:21.391Z</time>
      </trkpt>
      <trkpt lat="47.13889" lon="4.66422">
        <ele>487.45685085143</ele>
        <time>2022-03-23T17:27:26.329Z</time>
      </trkpt>
      <trkpt lat="47.13889" lon="4.66477">
        <ele>486.07170789519</ele>
        <time>2022-03-23T17:27:31.318Z</time>
      </trkpt>
      <trkpt lat="47.13889" lon="4.66483">
        <ele>484.80669191984</ele>
        <time>2022-03-23T17:27:36.312Z</time>
      </trkpt>
      <trkpt lat="47.13889" lon="4.6649">
        <ele>485.02631886509</ele>
        <time>2022-03-23T17:27:41.312Z</time>
      </trkpt>
      <trkpt lat="47.13907" lon="4.66486">
        <ele>485.81885103601</ele>
        <time>2022-03-23T17:27:46.337Z</time>
      </trkpt>
      <trkpt lat="47.13926" lon="4.66481">
        <ele>486.95288467905</ele>
        <time>2022-03-23T17:27:51.387Z</time>
      </trkpt>
      <trkpt lat="47.13942" lon="4.66481">
        <ele>488.36155602023</ele>
        <time>2022-03-23T17:27:56.459Z</time>
      </trkpt>
      <trkpt lat="47.13948" lon="4.66484">
        <ele>489.91248827799</ele>
        <time>2022-03-23T17:28:01.539Z</time>
      </trkpt>
      <trkpt lat="47.1396" lon="4.6649">
        <ele>491.79605262858</ele>
        <time>2022-03-23T17:28:06.636Z</time>
      </trkpt>
      <trkpt lat="47.13971" lon="4.66494">
        <ele>493.88106736153</ele>
        <time>2022-03-23T17:28:11.748Z</time>
      </trkpt>
      <trkpt lat="47.13979" lon="4.66495">
        <ele>496.13076542428</ele>
        <time>2022-03-23T17:28:16.871Z</time>
      </trkpt>
      <trkpt lat="47.13993" lon="4.6649">
        <ele>498.64178415006</ele>
        <time>2022-03-23T17:28:22.013Z</time>
      </trkpt>
      <trkpt lat="47.14013" lon="4.66487">
        <ele>501.30125088154</ele>
        <time>2022-03-23T17:28:27.182Z</time>
      </trkpt>
      <trkpt lat="47.1403" lon="4.6649">
        <ele>503.94270170992</ele>
        <time>2022-03-23T17:28:32.374Z</time>
      </trkpt>
      <trkpt lat="47.14048" lon="4.66491">
        <ele>506.67743067918</ele>
        <time>2022-03-23T17:28:37.590Z</time>
      </trkpt>
      <trkpt lat="47.14066" lon="4.6649">
        <ele>509.41320860392</ele>
        <time>2022-03-23T17:28:42.830Z</time>
      </trkpt>
      <trkpt lat="47.14095" lon="4.66482">
        <ele>512.23540836909</ele>
        <time>2022-03-23T17:28:48.109Z</time>
      </trkpt>
      <trkpt lat="47.14137" lon="4.66474">
        <ele>514.8777074518</ele>
        <time>2022-03-23T17:28:53.445Z</time>
      </trkpt>
      <trkpt lat="47.14192" lon="4.66461">
        <ele>517.41748763773</ele>
        <time>2022-03-23T17:28:58.855Z</time>
      </trkpt>
      <trkpt lat="47.14229" lon="4.6645">
        <ele>519.76655082712</ele>
        <time>2022-03-23T17:29:04.315Z</time>
      </trkpt>
      <trkpt lat="47.14244" lon="4.66448">
        <ele>521.98222149935</ele>
        <time>2022-03-23T17:29:09.795Z</time>
      </trkpt>
      <trkpt lat="47.14264" lon="4.6645">
        <ele>524.09795284142</ele>
        <time>2022-03-23T17:29:15.302Z</time>
      </trkpt>
      <trkpt lat="47.14297" lon="4.66457">
        <ele>526.10412092605</ele>
        <time>2022-03-23T17:29:20.854Z</time>
      </trkpt>
      <trkpt lat="47.14333" lon="4.66464">
        <ele>528.04036444373</ele>
        <time>2022-03-23T17:29:26.454Z</time>
      </trkpt>
      <trkpt lat="47.14369" lon="4.66469">
        <ele>529.69356472586</ele>
        <time>2022-03-23T17:29:32.102Z</time>
      </trkpt>
      <trkpt lat="47.14387" lon="4.6647">
        <ele>531.16487710585</ele>
        <time>2022-03-23T17:29:37.774Z</time>
      </trkpt>
      <trkpt lat="47.14405" lon="4.66468">
        <ele>532.45781259362</ele>
        <time>2022-03-23T17:29:43.471Z</time>
      </trkpt>
      <trkpt lat="47.14426" lon="4.66463">
        <ele>533.54043628589</ele>
        <time>2022-03-23T17:29:49.196Z</time>
      </trkpt>
      <trkpt lat="47.1444" lon="4.66461">
        <ele>534.47229368478</ele>
        <time>2022-03-23T17:29:54.940Z</time>
      </trkpt>
      <trkpt lat="47.14455" lon="4.66461">
        <ele>535.24878742919</ele>
        <time>2022-03-23T17:30:00.704Z</time>
      </trkpt>
      <trkpt lat="47.14467" lon="4.66462">
        <ele>535.83837827831</ele>
        <time>2022-03-23T17:30:06.483Z</time>
      </trkpt>
      <trkpt lat="47.14467" lon="4.66462">
        <ele>536.21464863125</ele>
        <time>2022-03-23T17:30:12.262Z</time>
      </trkpt>
      <trkpt lat="47.1447" lon="4.66462">
        <ele>536.37377443893</ele>
        <time>2022-03-23T17:30:18.046Z</time>
      </trkpt>
      <trkpt lat="47.14472" lon="4.66462">
        <ele>536.12503846692</ele>
        <time>2022-03-23T17:30:23.832Z</time>
      </trkpt>
      <trkpt lat="47.14486" lon="4.66491">
        <ele>535.69776745839</ele>
        <time>2022-03-23T17:30:29.651Z</time>
      </trkpt>
      <trkpt lat="47.1451" lon="4.66528">
        <ele>535.20552482481</ele>
        <time>2022-03-23T17:30:35.516Z</time>
      </trkpt>
      <trkpt lat="47.14539" lon="4.66578">
        <ele>534.56846046235</ele>
        <time>2022-03-23T17:30:41.441Z</time>
      </trkpt>
      <trkpt lat="47.14578" lon="4.66649">
        <ele>533.60729014356</ele>
        <time>2022-03-23T17:30:47.449Z</time>
      </trkpt>
      <trkpt lat="47.14592" lon="4.66674">
        <ele>532.71391301638</ele>
        <time>2022-03-23T17:30:53.486Z</time>
      </trkpt>
      <trkpt lat="47.14604" lon="4.66686">
        <ele>531.73500833056</ele>
        <time>2022-03-23T17:30:59.543Z</time>
      </trkpt>
      <trkpt lat="47.14628" lon="4.66703">
        <ele>530.65754753535</ele>
        <time>2022-03-23T17:31:05.635Z</time>
      </trkpt>
      <trkpt lat="47.14661" lon="4.66705">
        <ele>529.56190618778</ele>
        <time>2022-03-23T17:31:11.771Z</time>
      </trkpt>
      <trkpt lat="47.14682" lon="4.66702">
        <ele>528.3374069168</ele>
        <time>2022-03-23T17:31:17.935Z</time>
      </trkpt>
      <trkpt lat="47.14702" lon="4.66695">
        <ele>527.09475725165</ele>
        <time>2022-03-23T17:31:24.127Z</time>
      </trkpt>
      <trkpt lat="47.14727" lon="4.66682">
        <ele>525.78527315208</ele>
        <time>2022-03-23T17:31:30.354Z</time>
      </trkpt>
      <trkpt lat="47.14743" lon="4.66672">
        <ele>524.48744281034</ele>
        <time>2022-03-23T17:31:36.604Z</time>
      </trkpt>
      <trkpt lat="47.14746" lon="4.6667">
        <ele>523.16091968328</ele>
        <time>2022-03-23T17:31:42.859Z</time>
      </trkpt>
      <trkpt lat="47.14762" lon="4.66665">
        <ele>521.75696281031</ele>
        <time>2022-03-23T17:31:49.136Z</time>
      </trkpt>
      <trkpt lat="47.1477" lon="4.66665">
        <ele>520.3969631697</ele>
        <time>2022-03-23T17:31:55.423Z</time>
      </trkpt>
      <trkpt lat="47.14783" lon="4.66669">
        <ele>519.01081935368</ele>
        <time>2022-03-23T17:32:01.728Z</time>
      </trkpt>
      <trkpt lat="47.14861" lon="4.66727">
        <ele>517.43645316762</ele>
        <time>2022-03-23T17:32:08.150Z</time>
      </trkpt>
      <trkpt lat="47.14885" lon="4.66744">
        <ele>516.16956638997</ele>
        <time>2022-03-23T17:32:14.607Z</time>
      </trkpt>
      <trkpt lat="47.14894" lon="4.66748">
        <ele>514.95510369474</ele>
        <time>2022-03-23T17:32:21.077Z</time>
      </trkpt>
      <trkpt lat="47.14907" lon="4.6675">
        <ele>513.78368038915</ele>
        <time>2022-03-23T17:32:27.564Z</time>
      </trkpt>
      <trkpt lat="47.14923" lon="4.66748">
        <ele>512.62984792942</ele>
        <time>2022-03-23T17:32:34.073Z</time>
      </trkpt>
      <trkpt lat="47.14948" lon="4.66749">
        <ele>511.50889222045</ele>
        <time>2022-03-23T17:32:40.615Z</time>
      </trkpt>
      <trkpt lat="47.14966" lon="4.66747">
        <ele>510.53516466537</ele>
        <time>2022-03-23T17:32:47.181Z</time>
      </trkpt>
      <trkpt lat="47.14978" lon="4.66742">
        <ele>509.72109992111</ele>
        <time>2022-03-23T17:32:53.764Z</time>
      </trkpt>
      <trkpt lat="47.15016" lon="4.66718">
        <ele>508.95767767073</ele>
        <time>2022-03-23T17:33:00.402Z</time>
      </trkpt>
      <trkpt lat="47.15048" lon="4.66697">
        <ele>508.38997109451</ele>
        <time>2022-03-23T17:33:07.087Z</time>
      </trkpt>
      <trkpt lat="47.15052" lon="4.66694">
        <ele>507.44437166409</ele>
        <time>2022-03-23T17:33:13.778Z</time>
      </trkpt>
      <trkpt lat="47.15052" lon="4.66693">
        <ele>507.32374886804</ele>
        <time>2022-03-23T17:33:20.470Z</time>
      </trkpt>
      <trkpt lat="47.15056" lon="4.66691">
        <ele>507.25716233291</ele>
        <time>2022-03-23T17:33:27.167Z</time>
      </trkpt>
      <trkpt lat="47.15054" lon="4.66724">
        <ele>507.31865552985</ele>
        <time>2022-03-23T17:33:33.895Z</time>
      </trkpt>
      <trkpt lat="47.15049" lon="4.66749">
        <ele>507.42205796147</ele>
        <time>2022-03-23T17:33:40.646Z</time>
      </trkpt>
      <trkpt lat="47.15042" lon="4.66767">
        <ele>507.53264029023</ele>
        <time>2022-03-23T17:33:47.416Z</time>
      </trkpt>
      <trkpt lat="47.15031" lon="4.66787">
        <ele>507.62092341335</ele>
        <time>2022-03-23T17:33:54.209Z</time>
      </trkpt>
      <trkpt lat="47.15019" lon="4.66807">
        <ele>507.663935691</ele>
        <time>2022-03-23T17:34:01.027Z</time>
      </trkpt>
      <trkpt lat="47.15007" lon="4.66826">
        <ele>507.71012104464</ele>
        <time>2022-03-23T17:34:07.868Z</time>
      </trkpt>
      <trkpt lat="47.1499" lon="4.66844">
        <ele>507.77926765495</ele>
        <time>2022-03-23T17:34:14.737Z</time>
      </trkpt>
      <trkpt lat="47.14968" lon="4.6686">
        <ele>507.71295274734</ele>
        <time>2022-03-23T17:34:21.639Z</time>
      </trkpt>
      <trkpt lat="47.14951" lon="4.66869">
        <ele>507.47624439242</ele>
        <time>2022-03-23T17:34:28.565Z</time>
      </trkpt>
      <trkpt lat="47.14918" lon="4.66873">
        <ele>507.16300263211</ele>
        <time>2022-03-23T17:34:35.535Z</time>
      </trkpt>
      <trkpt lat="47.14903" lon="4.66878">
        <ele>506.6291276985</ele>
        <time>2022-03-23T17:34:42.526Z</time>
      </trkpt>
      <trkpt lat="47.14864" lon="4.66911">
        <ele>505.81449469155</ele>
        <time>2022-03-23T17:34:49.577Z</time>
      </trkpt>
      <trkpt lat="47.14849" lon="4.66921">
        <ele>504.89247522819</ele>
        <time>2022-03-23T17:34:56.650Z</time>
      </trkpt>
      <trkpt lat="47.14833" lon="4.66927">
        <ele>503.79078154688</ele>
        <time>2022-03-23T17:35:03.745Z</time>
      </trkpt>
      <trkpt lat="47.14797" lon="4.6693">
        <ele>502.47410542628</ele>
        <time>2022-03-23T17:35:10.888Z</time>
      </trkpt>
      <trkpt lat="47.14784" lon="4.66929">
        <ele>501.18082460813</ele>
        <time>2022-03-23T17:35:18.048Z</time>
      </trkpt>
      <trkpt lat="47.14787" lon="4.6694">
        <ele>499.67843491639</ele>
        <time>2022-03-23T17:35:25.219Z</time>
      </trkpt>
      <trkpt lat="47.14794" lon="4.6695">
        <ele>498.06837151978</ele>
        <time>2022-03-23T17:35:32.403Z</time>
      </trkpt>
      <trkpt lat="47.14808" lon="4.66966">
        <ele>496.29235829348</ele>
        <time>2022-03-23T17:35:39.611Z</time>
      </trkpt>
      <trkpt lat="47.14821" lon="4.66985">
        <ele>494.33035460508</ele>
        <time>2022-03-23T17:35:46.843Z</time>
      </trkpt>
      <trkpt lat="47.14846" lon="4.67">
        <ele>492.34758564943</ele>
        <time>2022-03-23T17:35:54.111Z</time>
      </trkpt>
      <trkpt lat="47.14852" lon="4.67008">
        <ele>490.34100016749</ele>
        <time>2022-03-23T17:36:01.390Z</time>
      </trkpt>
      <trkpt lat="47.14864" lon="4.67043">
        <ele>488.04771151707</ele>
        <time>2022-03-23T17:36:08.705Z</time>
      </trkpt>
      <trkpt lat="47.14873" lon="4.67058">
        <ele>485.92987027384</ele>
        <time>2022-03-23T17:36:16.038Z</time>
      </trkpt>
      <trkpt lat="47.14886" lon="4.67074">
        <ele>483.79859147761</ele>
        <time>2022-03-23T17:36:23.394Z</time>
      </trkpt>
      <trkpt lat="47.14898" lon="4.67092">
        <ele>481.62072288299</ele>
        <time>2022-03-23T17:36:30.773Z</time>
      </trkpt>
      <trkpt lat="47.14907" lon="4.67114">
        <ele>479.3631410107</ele>
        <time>2022-03-23T17:36:38.175Z</time>
      </trkpt>
      <trkpt lat="47.1492" lon="4.67153">
        <ele>476.91875580564</ele>
        <time>2022-03-23T17:36:45.616Z</time>
      </trkpt>
      <trkpt lat="47.14924" lon="4.67168">
        <ele>474.84899152269</ele>
        <time>2022-03-23T17:36:53.072Z</time>
      </trkpt>
      <trkpt lat="47.14926" lon="4.67185">
        <ele>472.88413717729</ele>
        <time>2022-03-23T17:37:00.544Z</time>
      </trkpt>
      <trkpt lat="47.14928" lon="4.67238">
        <ele>470.94019042643</ele>
        <time>2022-03-23T17:37:08.064Z</time>
      </trkpt>
      <trkpt lat="47.14924" lon="4.67265">
        <ele>469.25570219031</ele>
        <time>2022-03-23T17:37:15.609Z</time>
      </trkpt>
      <trkpt lat="47.14917" lon="4.67288">
        <ele>467.69723412857</ele>
        <time>2022-03-23T17:37:23.177Z</time>
      </trkpt>
      <trkpt lat="47.14915" lon="4.67299">
        <ele>466.21170922647</ele>
        <time>2022-03-23T17:37:30.755Z</time>
      </trkpt>
      <trkpt lat="47.14915" lon="4.673">
        <ele>461.69353829131</ele>
        <time>2022-03-23T17:37:38.334Z</time>
      </trkpt>
      <trkpt lat="47.14917" lon="4.67304">
        <ele>460.19387999961</ele>
        <time>2022-03-23T17:37:45.918Z</time>
      </trkpt>
      <trkpt lat="47.14922" lon="4.6731">
        <ele>458.66514816304</ele>
        <time>2022-03-23T17:37:53.511Z</time>
      </trkpt>
      <trkpt lat="47.14946" lon="4.67313">
        <ele>457.03427635696</ele>
        <time>2022-03-23T17:38:01.136Z</time>
      </trkpt>
      <trkpt lat="47.14981" lon="4.67319">
        <ele>455.28006374155</ele>
        <time>2022-03-23T17:38:08.808Z</time>
      </trkpt>
      <trkpt lat="47.15" lon="4.67328">
        <ele>453.45502068454</ele>
        <time>2022-03-23T17:38:16.506Z</time>
      </trkpt>
      <trkpt lat="47.15022" lon="4.67343">
        <ele>451.50389498334</ele>
        <time>2022-03-23T17:38:24.237Z</time>
      </trkpt>
      <trkpt lat="47.15041" lon="4.67357">
        <ele>449.43704555982</ele>
        <time>2022-03-23T17:38:31.996Z</time>
      </trkpt>
      <trkpt lat="47.15059" lon="4.67367">
        <ele>447.14318192404</ele>
        <time>2022-03-23T17:38:39.781Z</time>
      </trkpt>
      <trkpt lat="47.15076" lon="4.67374">
        <ele>444.70134690513</ele>
        <time>2022-03-23T17:38:47.589Z</time>
      </trkpt>
      <trkpt lat="47.15095" lon="4.67385">
        <ele>442.12814103164</ele>
        <time>2022-03-23T17:38:55.425Z</time>
      </trkpt>
      <trkpt lat="47.15137" lon="4.67428">
        <ele>439.49563072875</ele>
        <time>2022-03-23T17:39:03.329Z</time>
      </trkpt>
      <trkpt lat="47.15158" lon="4.67449">
        <ele>437.07196801492</ele>
        <time>2022-03-23T17:39:11.267Z</time>
      </trkpt>
      <trkpt lat="47.1517" lon="4.67457">
        <ele>434.6167629968</ele>
        <time>2022-03-23T17:39:19.222Z</time>
      </trkpt>
      <trkpt lat="47.15196" lon="4.67478">
        <ele>432.0500071978</ele>
        <time>2022-03-23T17:39:27.217Z</time>
      </trkpt>
      <trkpt lat="47.15212" lon="4.67507">
        <ele>429.68771892203</ele>
        <time>2022-03-23T17:39:35.246Z</time>
      </trkpt>
      <trkpt lat="47.1522" lon="4.67524">
        <ele>427.40793286714</ele>
        <time>2022-03-23T17:39:43.294Z</time>
      </trkpt>
      <trkpt lat="47.15232" lon="4.67535">
        <ele>425.21400919491</ele>
        <time>2022-03-23T17:39:51.361Z</time>
      </trkpt>
      <trkpt lat="47.15253" lon="4.67555">
        <ele>423.06142321478</ele>
        <time>2022-03-23T17:39:59.461Z</time>
      </trkpt>
      <trkpt lat="47.15286" lon="4.67571">
        <ele>421.0670278773</ele>
        <time>2022-03-23T17:40:07.607Z</time>
      </trkpt>
      <trkpt lat="47.15297" lon="4.67576">
        <ele>419.3917167367</ele>
        <time>2022-03-23T17:40:15.769Z</time>
      </trkpt>
      <trkpt lat="47.15306" lon="4.67574">
        <ele>417.93309082245</ele>
        <time>2022-03-23T17:40:23.943Z</time>
      </trkpt>
      <trkpt lat="47.15321" lon="4.67566">
        <ele>416.64551231369</ele>
        <time>2022-03-23T17:40:32.138Z</time>
      </trkpt>
      <trkpt lat="47.15324" lon="4.67572">
        <ele>415.63572563129</ele>
        <time>2022-03-23T17:40:40.340Z</time>
      </trkpt>
      <trkpt lat="47.15327" lon="4.67576">
        <ele>414.19983281812</ele>
        <time>2022-03-23T17:40:48.547Z</time>
      </trkpt>
      <trkpt lat="47.15321" lon="4.67566">
        <ele>416.64551231369</ele>
        <time>2022-03-23T17:40:56.766Z</time>
      </trkpt>
      <trkpt lat="47.15316" lon="4.6755">
        <ele>414.71816311289</ele>
        <time>2022-03-23T17:41:05.002Z</time>
      </trkpt>
      <trkpt lat="47.15312" lon="4.67522">
        <ele>415.34933672178</ele>
        <time>2022-03-23T17:41:13.264Z</time>
      </trkpt>
      <trkpt lat="47.15309" lon="4.67462">
        <ele>416.20474349342</ele>
        <time>2022-03-23T17:41:21.580Z</time>
      </trkpt>
      <trkpt lat="47.15307" lon="4.67409">
        <ele>417.4874387666</ele>
        <time>2022-03-23T17:41:29.945Z</time>
      </trkpt>
      <trkpt lat="47.1531" lon="4.67371">
        <ele>419.26996859183</ele>
        <time>2022-03-23T17:41:38.344Z</time>
      </trkpt>
      <trkpt lat="47.15315" lon="4.67358">
        <ele>421.36267242112</ele>
        <time>2022-03-23T17:41:46.757Z</time>
      </trkpt>
      <trkpt lat="47.15321" lon="4.67347">
        <ele>423.75086866202</ele>
        <time>2022-03-23T17:41:55.183Z</time>
      </trkpt>
      <trkpt lat="47.15374" lon="4.67284">
        <ele>426.77050338256</ele>
        <time>2022-03-23T17:42:03.700Z</time>
      </trkpt>
      <trkpt lat="47.15396" lon="4.67254">
        <ele>429.84447916809</ele>
        <time>2022-03-23T17:42:12.257Z</time>
      </trkpt>
      <trkpt lat="47.15405" lon="4.67237">
        <ele>433.04910388412</ele>
        <time>2022-03-23T17:42:20.834Z</time>
      </trkpt>
      <trkpt lat="47.15412" lon="4.67223">
        <ele>436.42214631918</ele>
        <time>2022-03-23T17:42:29.426Z</time>
      </trkpt>
      <trkpt lat="47.15431" lon="4.67186">
        <ele>440.18175179116</ele>
        <time>2022-03-23T17:42:38.060Z</time>
      </trkpt>
      <trkpt lat="47.15464" lon="4.67151">
        <ele>444.07328633033</ele>
        <time>2022-03-23T17:42:46.749Z</time>
      </trkpt>
      <trkpt lat="47.15475" lon="4.67131">
        <ele>447.87949877929</ele>
        <time>2022-03-23T17:42:55.461Z</time>
      </trkpt>
      <trkpt lat="47.15482" lon="4.67077">
        <ele>452.11610388266</ele>
        <time>2022-03-23T17:43:04.223Z</time>
      </trkpt>
      <trkpt lat="47.15497" lon="4.67038">
        <ele>456.21543932332</ele>
        <time>2022-03-23T17:43:13.026Z</time>
      </trkpt>
      <trkpt lat="47.15516" lon="4.67003">
        <ele>460.23787372981</ele>
        <time>2022-03-23T17:43:21.870Z</time>
      </trkpt>
      <trkpt lat="47.1553" lon="4.66985">
        <ele>464.24213844969</ele>
        <time>2022-03-23T17:43:30.738Z</time>
      </trkpt>
      <trkpt lat="47.15535" lon="4.66976">
        <ele>468.0195698963</ele>
        <time>2022-03-23T17:43:39.617Z</time>
      </trkpt>
      <trkpt lat="47.15539" lon="4.66961">
        <ele>471.80646235754</ele>
        <time>2022-03-23T17:43:48.511Z</time>
      </trkpt>
      <trkpt lat="47.15547" lon="4.66914">
        <ele>475.80340645275</ele>
        <time>2022-03-23T17:43:57.449Z</time>
      </trkpt>
      <trkpt lat="47.15557" lon="4.66888">
        <ele>479.43727680358</ele>
        <time>2022-03-23T17:44:06.414Z</time>
      </trkpt>
      <trkpt lat="47.15577" lon="4.66852">
        <ele>483.1031037847</ele>
        <time>2022-03-23T17:44:15.421Z</time>
      </trkpt>
      <trkpt lat="47.15607" lon="4.66816">
        <ele>486.34284648063</ele>
        <time>2022-03-23T17:44:24.480Z</time>
      </trkpt>
      <trkpt lat="47.15618" lon="4.66803">
        <ele>489.14176489659</ele>
        <time>2022-03-23T17:44:33.558Z</time>
      </trkpt>
      <trkpt lat="47.1562" lon="4.66797">
        <ele>491.7040065648</ele>
        <time>2022-03-23T17:44:42.642Z</time>
      </trkpt>
      <trkpt lat="47.15623" lon="4.66789">
        <ele>494.0716143345</ele>
        <time>2022-03-23T17:44:51.734Z</time>
      </trkpt>
      <trkpt lat="47.15621" lon="4.66784">
        <ele>496.2083026747</ele>
        <time>2022-03-23T17:45:00.831Z</time>
      </trkpt>
      <trkpt lat="47.1562" lon="4.66778">
        <ele>498.1332569878</ele>
        <time>2022-03-23T17:45:09.934Z</time>
      </trkpt>
      <trkpt lat="47.1562" lon="4.66769">
        <ele>499.87556043377</ele>
        <time>2022-03-23T17:45:19.045Z</time>
      </trkpt>
      <trkpt lat="47.15625" lon="4.66759">
        <ele>501.45657285213</ele>
        <time>2022-03-23T17:45:28.168Z</time>
      </trkpt>
      <trkpt lat="47.15639" lon="4.66744">
        <ele>502.95012895675</ele>
        <time>2022-03-23T17:45:37.314Z</time>
      </trkpt>
      <trkpt lat="47.15639" lon="4.66741">
        <ele>504.25054761525</ele>
        <time>2022-03-23T17:45:46.462Z</time>
      </trkpt>
      <trkpt lat="47.15655" lon="4.66728">
        <ele>505.54779426687</ele>
        <time>2022-03-23T17:45:55.635Z</time>
      </trkpt>
      <trkpt lat="47.15672" lon="4.66714">
        <ele>506.74052304892</ele>
        <time>2022-03-23T17:46:04.834Z</time>
      </trkpt>
      <trkpt lat="47.15698" lon="4.66679">
        <ele>507.86527195918</ele>
        <time>2022-03-23T17:46:14.080Z</time>
      </trkpt>
      <trkpt lat="47.15707" lon="4.66678">
        <ele>508.89196710498</ele>
        <time>2022-03-23T17:46:23.338Z</time>
      </trkpt>
      <trkpt lat="47.15721" lon="4.66652">
        <ele>510.0310971592</ele>
        <time>2022-03-23T17:46:32.626Z</time>
      </trkpt>
      <trkpt lat="47.15733" lon="4.6662">
        <ele>511.14949691039</ele>
        <time>2022-03-23T17:46:41.947Z</time>
      </trkpt>
      <trkpt lat="47.15742" lon="4.66594">
        <ele>512.267693456</ele>
        <time>2022-03-23T17:46:51.295Z</time>
      </trkpt>
      <trkpt lat="47.15749" lon="4.6657">
        <ele>513.47284926863</ele>
        <time>2022-03-23T17:47:00.667Z</time>
      </trkpt>
      <trkpt lat="47.15756" lon="4.66557">
        <ele>514.71458280768</ele>
        <time>2022-03-23T17:47:10.054Z</time>
      </trkpt>
      <trkpt lat="47.15765" lon="4.66543">
        <ele>515.98946927977</ele>
        <time>2022-03-23T17:47:19.458Z</time>
      </trkpt>
      <trkpt lat="47.15774" lon="4.66538">
        <ele>517.32134472377</ele>
        <time>2022-03-23T17:47:28.874Z</time>
      </trkpt>
      <trkpt lat="47.15774" lon="4.66538">
        <ele>518.64843712447</ele>
        <time>2022-03-23T17:47:38.290Z</time>
      </trkpt>
      <trkpt lat="47.15778" lon="4.66536">
        <ele>523.21491492058</ele>
        <time>2022-03-23T17:47:47.713Z</time>
      </trkpt>
      <trkpt lat="47.15825" lon="4.66575">
        <ele>525.15893093322</ele>
        <time>2022-03-23T17:47:57.208Z</time>
      </trkpt>
      <trkpt lat="47.15844" lon="4.66588">
        <ele>527.04953891029</ele>
        <time>2022-03-23T17:48:06.731Z</time>
      </trkpt>
      <trkpt lat="47.15853" lon="4.66591">
        <ele>528.95381295515</ele>
        <time>2022-03-23T17:48:16.266Z</time>
      </trkpt>
      <trkpt lat="47.15861" lon="4.66592">
        <ele>530.90649073825</ele>
        <time>2022-03-23T17:48:25.812Z</time>
      </trkpt>
      <trkpt lat="47.15874" lon="4.66588">
        <ele>532.99187566403</ele>
        <time>2022-03-23T17:48:35.375Z</time>
      </trkpt>
      <trkpt lat="47.15908" lon="4.66562">
        <ele>535.29743693184</ele>
        <time>2022-03-23T17:48:44.990Z</time>
      </trkpt>
      <trkpt lat="47.15914" lon="4.66547">
        <ele>537.33480250293</ele>
        <time>2022-03-23T17:48:54.620Z</time>
      </trkpt>
      <trkpt lat="47.15934" lon="4.66467">
        <ele>539.45577189962</ele>
        <time>2022-03-23T17:49:04.328Z</time>
      </trkpt>
      <trkpt lat="47.15965" lon="4.66355">
        <ele>541.6250558529</ele>
        <time>2022-03-23T17:49:14.146Z</time>
      </trkpt>
      <trkpt lat="47.16007" lon="4.66222">
        <ele>543.73778641627</ele>
        <time>2022-03-23T17:49:24.097Z</time>
      </trkpt>
      <trkpt lat="47.16026" lon="4.66158">
        <ele>545.56021368573</ele>
        <time>2022-03-23T17:49:34.112Z</time>
      </trkpt>
      <trkpt lat="47.16029" lon="4.66147">
        <ele>547.17189412021</ele>
        <time>2022-03-23T17:49:44.138Z</time>
      </trkpt>
      <trkpt lat="47.16035" lon="4.66146">
        <ele>548.63863137448</ele>
        <time>2022-03-23T17:49:54.172Z</time>
      </trkpt>
      <trkpt lat="47.16039" lon="4.66147">
        <ele>549.9445656268</ele>
        <time>2022-03-23T17:50:04.211Z</time>
      </trkpt>
      <trkpt lat="47.16071" lon="4.66162">
        <ele>551.13363984236</ele>
        <time>2022-03-23T17:50:14.295Z</time>
      </trkpt>
      <trkpt lat="47.16071" lon="4.66162">
        <ele>552.10651847744</ele>
        <time>2022-03-23T17:50:24.379Z</time>
      </trkpt>
      <trkpt lat="47.16075" lon="4.66164">
        <ele>554.03904695312</ele>
        <time>2022-03-23T17:50:34.469Z</time>
      </trkpt>
      <trkpt lat="47.16116" lon="4.66183">
        <ele>554.28636712348</ele>
        <time>2022-03-23T17:50:44.616Z</time>
      </trkpt>
      <trkpt lat="47.16147" lon="4.66187">
        <ele>554.39008702121</ele>
        <time>2022-03-23T17:50:54.804Z</time>
      </trkpt>
      <trkpt lat="47.16172" lon="4.66185">
        <ele>554.3525231955</ele>
        <time>2022-03-23T17:51:05.026Z</time>
      </trkpt>
      <trkpt lat="47.16193" lon="4.66189">
        <ele>554.15307822625</ele>
        <time>2022-03-23T17:51:15.276Z</time>
      </trkpt>
      <trkpt lat="47.16212" lon="4.66194">
        <ele>553.87431702581</ele>
        <time>2022-03-23T17:51:25.552Z</time>
      </trkpt>
      <trkpt lat="47.16222" lon="4.66193">
        <ele>553.47792113615</ele>
        <time>2022-03-23T17:51:35.841Z</time>
      </trkpt>
      <trkpt lat="47.16228" lon="4.6619">
        <ele>552.95922636822</ele>
        <time>2022-03-23T17:51:46.139Z</time>
      </trkpt>
      <trkpt lat="47.16232" lon="4.66185">
        <ele>552.31006524956</ele>
        <time>2022-03-23T17:51:56.444Z</time>
      </trkpt>
      <trkpt lat="47.16238" lon="4.66172">
        <ele>551.52889155813</ele>
        <time>2022-03-23T17:52:06.763Z</time>
      </trkpt>
      <trkpt lat="47.16254" lon="4.66119">
        <ele>550.61225131812</ele>
        <time>2022-03-23T17:52:17.135Z</time>
      </trkpt>
      <trkpt lat="47.16272" lon="4.66079">
        <ele>549.56759509549</ele>
        <time>2022-03-23T17:52:27.550Z</time>
      </trkpt>
      <trkpt lat="47.16283" lon="4.66053">
        <ele>548.41875055989</ele>
        <time>2022-03-23T17:52:37.993Z</time>
      </trkpt>
      <trkpt lat="47.16306" lon="4.65972">
        <ele>547.09245256245</ele>
        <time>2022-03-23T17:52:48.516Z</time>
      </trkpt>
      <trkpt lat="47.16326" lon="4.65898">
        <ele>545.65215443588</ele>
        <time>2022-03-23T17:52:59.111Z</time>
      </trkpt>
      <trkpt lat="47.16342" lon="4.6585">
        <ele>544.27240032988</ele>
        <time>2022-03-23T17:53:09.755Z</time>
      </trkpt>
      <trkpt lat="47.16352" lon="4.65814">
        <ele>542.71523661612</ele>
        <time>2022-03-23T17:53:20.434Z</time>
      </trkpt>
      <trkpt lat="47.16364" lon="4.65784">
        <ele>541.02118955051</ele>
        <time>2022-03-23T17:53:31.145Z</time>
      </trkpt>
      <trkpt lat="47.16376" lon="4.65758">
        <ele>539.30251365755</ele>
        <time>2022-03-23T17:53:41.885Z</time>
      </trkpt>
      <trkpt lat="47.16379" lon="4.65745">
        <ele>537.58136350767</ele>
        <time>2022-03-23T17:53:52.637Z</time>
      </trkpt>
      <trkpt lat="47.16386" lon="4.65689">
        <ele>535.67027359524</ele>
        <time>2022-03-23T17:54:03.441Z</time>
      </trkpt>
      <trkpt lat="47.16392" lon="4.6565">
        <ele>533.76865792486</ele>
        <time>2022-03-23T17:54:14.281Z</time>
      </trkpt>
      <trkpt lat="47.16402" lon="4.65627">
        <ele>531.74940021206</ele>
        <time>2022-03-23T17:54:25.146Z</time>
      </trkpt>
      <trkpt lat="47.16414" lon="4.65616">
        <ele>529.74111879035</ele>
        <time>2022-03-23T17:54:36.030Z</time>
      </trkpt>
      <trkpt lat="47.16448" lon="4.65601">
        <ele>527.63205516899</ele>
        <time>2022-03-23T17:54:46.961Z</time>
      </trkpt>
      <trkpt lat="47.16483" lon="4.65588">
        <ele>525.63640986644</ele>
        <time>2022-03-23T17:54:57.940Z</time>
      </trkpt>
      <trkpt lat="47.16531" lon="4.6557">
        <ele>523.55496141155</ele>
        <time>2022-03-23T17:55:08.986Z</time>
      </trkpt>
      <trkpt lat="47.16546" lon="4.65564">
        <ele>521.48206802177</ele>
        <time>2022-03-23T17:55:20.052Z</time>
      </trkpt>
      <trkpt lat="47.16547" lon="4.65562">
        <ele>519.32231356104</ele>
        <time>2022-03-23T17:55:31.121Z</time>
      </trkpt>
      <trkpt lat="47.1655" lon="4.65556">
        <ele>512.53293744198</ele>
        <time>2022-03-23T17:55:42.196Z</time>
      </trkpt>
      <trkpt lat="47.1655" lon="4.65531">
        <ele>509.93598724899</ele>
        <time>2022-03-23T17:55:53.294Z</time>
      </trkpt>
      <trkpt lat="47.16547" lon="4.6547">
        <ele>507.03377548612</ele>
        <time>2022-03-23T17:56:04.448Z</time>
      </trkpt>
      <trkpt lat="47.16539" lon="4.6533">
        <ele>504.0899019521</ele>
        <time>2022-03-23T17:56:15.730Z</time>
      </trkpt>
      <trkpt lat="47.16535" lon="4.65252">
        <ele>501.37199618175</ele>
        <time>2022-03-23T17:56:27.083Z</time>
      </trkpt>
      <trkpt lat="47.16534" lon="4.65234">
        <ele>499.00259597333</ele>
        <time>2022-03-23T17:56:38.452Z</time>
      </trkpt>
      <trkpt lat="47.16538" lon="4.65214">
        <ele>496.64508963772</ele>
        <time>2022-03-23T17:56:49.840Z</time>
      </trkpt>
      <trkpt lat="47.16543" lon="4.6521">
        <ele>494.53974073588</ele>
        <time>2022-03-23T17:57:01.236Z</time>
      </trkpt>
      <trkpt lat="47.16558" lon="4.6521">
        <ele>492.6086395194</ele>
        <time>2022-03-23T17:57:12.652Z</time>
      </trkpt>
      <trkpt lat="47.16594" lon="4.65215">
        <ele>490.80377931506</ele>
        <time>2022-03-23T17:57:24.116Z</time>
      </trkpt>
      <trkpt lat="47.1663" lon="4.65223">
        <ele>489.10536211715</ele>
        <time>2022-03-23T17:57:35.629Z</time>
      </trkpt>
      <trkpt lat="47.16647" lon="4.65229">
        <ele>487.47105724925</ele>
        <time>2022-03-23T17:57:47.165Z</time>
      </trkpt>
      <trkpt lat="47.16664" lon="4.65237">
        <ele>485.88469065172</ele>
        <time>2022-03-23T17:57:58.725Z</time>
      </trkpt>
      <trkpt lat="47.16682" lon="4.6524">
        <ele>484.1801679738</ele>
        <time>2022-03-23T17:58:10.309Z</time>
      </trkpt>
      <trkpt lat="47.16698" lon="4.65242">
        <ele>482.54860662059</ele>
        <time>2022-03-23T17:58:21.914Z</time>
      </trkpt>
      <trkpt lat="47.16722" lon="4.65249">
        <ele>481.02722537054</ele>
        <time>2022-03-23T17:58:33.552Z</time>
      </trkpt>
      <trkpt lat="47.16731" lon="4.65246">
        <ele>479.4188377206</ele>
        <time>2022-03-23T17:58:45.202Z</time>
      </trkpt>
      <trkpt lat="47.16733" lon="4.65241">
        <ele>477.82652878575</ele>
        <time>2022-03-23T17:58:56.857Z</time>
      </trkpt>
      <trkpt lat="47.16723" lon="4.65235">
        <ele>476.20305519217</ele>
        <time>2022-03-23T17:59:08.527Z</time>
      </trkpt>
      <trkpt lat="47.16702" lon="4.65225">
        <ele>474.5558253884</ele>
        <time>2022-03-23T17:59:20.226Z</time>
      </trkpt>
      <trkpt lat="47.1668" lon="4.65217">
        <ele>472.95419361956</ele>
        <time>2022-03-23T17:59:31.956Z</time>
      </trkpt>
      <trkpt lat="47.1665" lon="4.65207">
        <ele>471.47670583316</ele>
        <time>2022-03-23T17:59:43.727Z</time>
      </trkpt>
      <trkpt lat="47.16633" lon="4.65198">
        <ele>469.89931628844</ele>
        <time>2022-03-23T17:59:55.522Z</time>
      </trkpt>
      <trkpt lat="47.16608" lon="4.65183">
        <ele>468.21618308212</ele>
        <time>2022-03-23T18:00:07.353Z</time>
      </trkpt>
      <trkpt lat="47.16529" lon="4.65121">
        <ele>466.08649234034</ele>
        <time>2022-03-23T18:00:19.303Z</time>
      </trkpt>
      <trkpt lat="47.16515" lon="4.65113">
        <ele>464.60742416795</ele>
        <time>2022-03-23T18:00:31.273Z</time>
      </trkpt>
      <trkpt lat="47.16491" lon="4.65102">
        <ele>463.17279169218</ele>
        <time>2022-03-23T18:00:43.277Z</time>
      </trkpt>
      <trkpt lat="47.16459" lon="4.65088">
        <ele>461.88985948329</ele>
        <time>2022-03-23T18:00:55.325Z</time>
      </trkpt>
      <trkpt lat="47.16429" lon="4.65059">
        <ele>460.60407843686</ele>
        <time>2022-03-23T18:01:07.421Z</time>
      </trkpt>
      <trkpt lat="47.1642" lon="4.65045">
        <ele>459.6067912297</ele>
        <time>2022-03-23T18:01:19.535Z</time>
      </trkpt>
      <trkpt lat="47.16417" lon="4.65041">
        <ele>458.0908357327</ele>
        <time>2022-03-23T18:01:31.654Z</time>
      </trkpt>
      <trkpt lat="47.1641" lon="4.65047">
        <ele>458.07352405358</ele>
        <time>2022-03-23T18:01:43.784Z</time>
      </trkpt>
      <trkpt lat="47.16399" lon="4.65051">
        <ele>458.25669425638</ele>
        <time>2022-03-23T18:01:55.929Z</time>
      </trkpt>
      <trkpt lat="47.16388" lon="4.65055">
        <ele>458.66842616726</ele>
        <time>2022-03-23T18:02:08.089Z</time>
      </trkpt>
      <trkpt lat="47.16376" lon="4.65056">
        <ele>459.23502893906</ele>
        <time>2022-03-23T18:02:20.265Z</time>
      </trkpt>
      <trkpt lat="47.16367" lon="4.65053">
        <ele>459.92151941755</ele>
        <time>2022-03-23T18:02:32.454Z</time>
      </trkpt>
      <trkpt lat="47.16355" lon="4.65049">
        <ele>460.78498036623</ele>
        <time>2022-03-23T18:02:44.659Z</time>
      </trkpt>
      <trkpt lat="47.16339" lon="4.65043">
        <ele>461.77892053778</ele>
        <time>2022-03-23T18:02:56.886Z</time>
      </trkpt>
      <trkpt lat="47.16311" lon="4.65035">
        <ele>462.99848509264</ele>
        <time>2022-03-23T18:03:09.151Z</time>
      </trkpt>
      <trkpt lat="47.16307" lon="4.65034">
        <ele>464.22284891517</ele>
        <time>2022-03-23T18:03:21.422Z</time>
      </trkpt>
      <trkpt lat="47.16307" lon="4.65034">
        <ele>465.51469829026</ele>
        <time>2022-03-23T18:03:33.693Z</time>
      </trkpt>
      <trkpt lat="47.16307" lon="4.65034">
        <ele>469.88760771774</ele>
        <time>2022-03-23T18:03:45.965Z</time>
      </trkpt>
      <trkpt lat="47.16249" lon="4.65023">
        <ele>472.00055090004</ele>
        <time>2022-03-23T18:03:58.315Z</time>
      </trkpt>
      <trkpt lat="47.16207" lon="4.65009">
        <ele>473.85025501043</ele>
        <time>2022-03-23T18:04:10.722Z</time>
      </trkpt>
      <trkpt lat="47.16166" lon="4.64992">
        <ele>475.48902571451</ele>
        <time>2022-03-23T18:04:23.186Z</time>
      </trkpt>
      <trkpt lat="47.16152" lon="4.6499">
        <ele>477.15545603148</ele>
        <time>2022-03-23T18:04:35.668Z</time>
      </trkpt>
      <trkpt lat="47.16152" lon="4.6499">
        <ele>478.75742932942</ele>
        <time>2022-03-23T18:04:48.150Z</time>
      </trkpt>
      <trkpt lat="47.16152" lon="4.6499">
        <ele>481.89275694975</ele>
        <time>2022-03-23T18:05:00.633Z</time>
      </trkpt>
      <trkpt lat="47.16128" lon="4.64988">
        <ele>483.46166623568</ele>
        <time>2022-03-23T18:05:13.148Z</time>
      </trkpt>
      <trkpt lat="47.1611" lon="4.64989">
        <ele>484.99981312047</ele>
        <time>2022-03-23T18:05:25.687Z</time>
      </trkpt>
      <trkpt lat="47.16092" lon="4.64995">
        <ele>486.58513309886</ele>
        <time>2022-03-23T18:05:38.251Z</time>
      </trkpt>
      <trkpt lat="47.16083" lon="4.64999">
        <ele>488.07089560014</ele>
        <time>2022-03-23T18:05:50.827Z</time>
      </trkpt>
      <trkpt lat="47.16066" lon="4.65005">
        <ele>489.56274701627</ele>
        <time>2022-03-23T18:06:03.427Z</time>
      </trkpt>
      <trkpt lat="47.16042" lon="4.65009">
        <ele>490.95080501934</ele>
        <time>2022-03-23T18:06:16.059Z</time>
      </trkpt>
      <trkpt lat="47.16015" lon="4.65024">
        <ele>492.23200006427</ele>
        <time>2022-03-23T18:06:28.729Z</time>
      </trkpt>
      <trkpt lat="47.16006" lon="4.65031">
        <ele>493.41252098531</ele>
        <time>2022-03-23T18:06:41.413Z</time>
      </trkpt>
      <trkpt lat="47.16003" lon="4.65026">
        <ele>494.4280003159</ele>
        <time>2022-03-23T18:06:54.103Z</time>
      </trkpt>
      <trkpt lat="47.15996" lon="4.65027">
        <ele>495.42178353674</ele>
        <time>2022-03-23T18:07:06.802Z</time>
      </trkpt>
      <trkpt lat="47.15982" lon="4.65032">
        <ele>496.3897823821</ele>
        <time>2022-03-23T18:07:19.521Z</time>
      </trkpt>
      <trkpt lat="47.15963" lon="4.65034">
        <ele>497.27344237584</ele>
        <time>2022-03-23T18:07:32.265Z</time>
      </trkpt>
      <trkpt lat="47.15941" lon="4.65038">
        <ele>498.15748623697</ele>
        <time>2022-03-23T18:07:45.039Z</time>
      </trkpt>
      <trkpt lat="47.15926" lon="4.65041">
        <ele>498.8929218674</ele>
        <time>2022-03-23T18:07:57.833Z</time>
      </trkpt>
      <trkpt lat="47.15898" lon="4.65043">
        <ele>499.58342998196</ele>
        <time>2022-03-23T18:08:10.664Z</time>
      </trkpt>
      <trkpt lat="47.15884" lon="4.6504">
        <ele>500.20018092427</ele>
        <time>2022-03-23T18:08:23.514Z</time>
      </trkpt>
      <trkpt lat="47.15877" lon="4.65036">
        <ele>500.73984939421</ele>
        <time>2022-03-23T18:08:36.374Z</time>
      </trkpt>
      <trkpt lat="47.15865" lon="4.65031">
        <ele>501.2476978835</ele>
        <time>2022-03-23T18:08:49.251Z</time>
      </trkpt>
      <trkpt lat="47.15852" lon="4.65033">
        <ele>501.72317618249</ele>
        <time>2022-03-23T18:09:02.145Z</time>
      </trkpt>
      <trkpt lat="47.15825" lon="4.65042">
        <ele>502.21260754354</ele>
        <time>2022-03-23T18:09:15.076Z</time>
      </trkpt>
      <trkpt lat="47.15798" lon="4.65057">
        <ele>502.46435096546</ele>
        <time>2022-03-23T18:09:28.046Z</time>
      </trkpt>
      <trkpt lat="47.1579" lon="4.65065">
        <ele>502.58706566991</ele>
        <time>2022-03-23T18:09:41.028Z</time>
      </trkpt>
      <trkpt lat="47.15784" lon="4.65072">
        <ele>502.60169554387</ele>
        <time>2022-03-23T18:09:54.021Z</time>
      </trkpt>
      <trkpt lat="47.15776" lon="4.65076">
        <ele>502.52095168233</ele>
        <time>2022-03-23T18:10:07.025Z</time>
      </trkpt>
      <trkpt lat="47.15742" lon="4.65092">
        <ele>502.4245215747</ele>
        <time>2022-03-23T18:10:20.077Z</time>
      </trkpt>
      <trkpt lat="47.157" lon="4.65105">
        <ele>502.29026473664</ele>
        <time>2022-03-23T18:10:33.186Z</time>
      </trkpt>
      <trkpt lat="47.1569" lon="4.65105">
        <ele>501.86938112847</ele>
        <time>2022-03-23T18:10:46.308Z</time>
      </trkpt>
      <trkpt lat="47.15675" lon="4.65101">
        <ele>501.30864538096</ele>
        <time>2022-03-23T18:10:59.451Z</time>
      </trkpt>
      <trkpt lat="47.15661" lon="4.65103">
        <ele>500.65562675956</ele>
        <time>2022-03-23T18:11:12.612Z</time>
      </trkpt>
      <trkpt lat="47.15654" lon="4.65104">
        <ele>499.85237781397</ele>
        <time>2022-03-23T18:11:25.783Z</time>
      </trkpt>
      <trkpt lat="47.15654" lon="4.65045">
        <ele>498.54739799</ele>
        <time>2022-03-23T18:11:39.007Z</time>
      </trkpt>
      <trkpt lat="47.15654" lon="4.65044">
        <ele>497.47674754841</ele>
        <time>2022-03-23T18:11:52.232Z</time>
      </trkpt>
      <trkpt lat="47.15654" lon="4.65022">
        <ele>494.87964771774</ele>
        <time>2022-03-23T18:12:05.477Z</time>
      </trkpt>
      <trkpt lat="47.15659" lon="4.65021">
        <ele>493.48997510018</ele>
        <time>2022-03-23T18:12:18.729Z</time>
      </trkpt>
      <trkpt lat="47.15669" lon="4.65012">
        <ele>491.96223878436</ele>
        <time>2022-03-23T18:12:31.997Z</time>
      </trkpt>
      <trkpt lat="47.15674" lon="4.65006">
        <ele>490.35763458177</ele>
        <time>2022-03-23T18:12:45.273Z</time>
      </trkpt>
      <trkpt lat="47.15692" lon="4.65001">
        <ele>488.67075771204</ele>
        <time>2022-03-23T18:12:58.574Z</time>
      </trkpt>
      <trkpt lat="47.15709" lon="4.64998">
        <ele>486.99427608393</ele>
        <time>2022-03-23T18:13:11.898Z</time>
      </trkpt>
      <trkpt lat="47.15732" lon="4.64997">
        <ele>485.34847032913</ele>
        <time>2022-03-23T18:13:25.252Z</time>
      </trkpt>
      <trkpt lat="47.15757" lon="4.64988">
        <ele>483.58364196091</ele>
        <time>2022-03-23T18:13:38.641Z</time>
      </trkpt>
      <trkpt lat="47.1578" lon="4.64977">
        <ele>481.94274720297</ele>
        <time>2022-03-23T18:13:52.062Z</time>
      </trkpt>
      <trkpt lat="47.15821" lon="4.6496">
        <ele>480.36416869423</ele>
        <time>2022-03-23T18:14:05.540Z</time>
      </trkpt>
      <trkpt lat="47.15898" lon="4.64918">
        <ele>478.27401197128</ele>
        <time>2022-03-23T18:14:19.127Z</time>
      </trkpt>
      <trkpt lat="47.15916" lon="4.6491">
        <ele>476.59863560866</ele>
        <time>2022-03-23T18:14:32.739Z</time>
      </trkpt>
      <trkpt lat="47.15923" lon="4.64907">
        <ele>475.16742268738</ele>
        <time>2022-03-23T18:14:46.361Z</time>
      </trkpt>
      <trkpt lat="47.15917" lon="4.64906">
        <ele>473.99380986451</ele>
        <time>2022-03-23T18:14:59.991Z</time>
      </trkpt>
      <trkpt lat="47.15895" lon="4.64904">
        <ele>473.02128289817</ele>
        <time>2022-03-23T18:15:13.651Z</time>
      </trkpt>
      <trkpt lat="47.15891" lon="4.64905">
        <ele>472.09501604799</ele>
        <time>2022-03-23T18:15:27.317Z</time>
      </trkpt>
      <trkpt lat="47.1589" lon="4.64905">
        <ele>470.55668157648</ele>
        <time>2022-03-23T18:15:40.983Z</time>
      </trkpt>
      <trkpt lat="47.1589" lon="4.64905">
        <ele>469.97316366439</ele>
        <time>2022-03-23T18:15:54.650Z</time>
      </trkpt>
      <trkpt lat="47.15889" lon="4.64905">
        <ele>469.51451082095</ele>
        <time>2022-03-23T18:16:08.318Z</time>
      </trkpt>
      <trkpt lat="47.15872" lon="4.64911">
        <ele>469.3084442731</ele>
        <time>2022-03-23T18:16:22.009Z</time>
      </trkpt>
      <trkpt lat="47.15834" lon="4.64912">
        <ele>469.02892763275</ele>
        <time>2022-03-23T18:16:35.751Z</time>
      </trkpt>
      <trkpt lat="47.15802" lon="4.6491">
        <ele>468.71605909984</ele>
        <time>2022-03-23T18:16:49.536Z</time>
      </trkpt>
      <trkpt lat="47.15776" lon="4.64911">
        <ele>468.57700060677</ele>
        <time>2022-03-23T18:17:03.355Z</time>
      </trkpt>
      <trkpt lat="47.15744" lon="4.64917">
        <ele>468.67047282978</ele>
        <time>2022-03-23T18:17:17.217Z</time>
      </trkpt>
      <trkpt lat="47.15722" lon="4.64919">
        <ele>468.94957778019</ele>
        <time>2022-03-23T18:17:31.109Z</time>
      </trkpt>
      <trkpt lat="47.15675" lon="4.64907">
        <ele>469.16697996718</ele>
        <time>2022-03-23T18:17:45.064Z</time>
      </trkpt>
      <trkpt lat="47.15637" lon="4.64918">
        <ele>469.72346522999</ele>
        <time>2022-03-23T18:17:59.071Z</time>
      </trkpt>
      <trkpt lat="47.15604" lon="4.64923">
        <ele>470.19874160862</ele>
        <time>2022-03-23T18:18:13.122Z</time>
      </trkpt>
      <trkpt lat="47.15575" lon="4.6493">
        <ele>470.86535741665</ele>
        <time>2022-03-23T18:18:27.212Z</time>
      </trkpt>
      <trkpt lat="47.15559" lon="4.64929">
        <ele>471.35569281746</ele>
        <time>2022-03-23T18:18:41.324Z</time>
      </trkpt>
      <trkpt lat="47.15524" lon="4.64924">
        <ele>471.75060930218</ele>
        <time>2022-03-23T18:18:55.483Z</time>
      </trkpt>
      <trkpt lat="47.15515" lon="4.64925">
        <ele>472.31944047171</ele>
        <time>2022-03-23T18:19:09.654Z</time>
      </trkpt>
      <trkpt lat="47.15504" lon="4.64929">
        <ele>472.96307885603</ele>
        <time>2022-03-23T18:19:23.840Z</time>
      </trkpt>
      <trkpt lat="47.15495" lon="4.64934">
        <ele>473.68560777618</ele>
        <time>2022-03-23T18:19:38.039Z</time>
      </trkpt>
      <trkpt lat="47.15478" lon="4.64949">
        <ele>474.54876704894</ele>
        <time>2022-03-23T18:19:52.264Z</time>
      </trkpt>
      <trkpt lat="47.15466" lon="4.64958">
        <ele>475.28722762253</ele>
        <time>2022-03-23T18:20:06.507Z</time>
      </trkpt>
      <trkpt lat="47.15455" lon="4.64965">
        <ele>476.04257256287</ele>
        <time>2022-03-23T18:20:20.766Z</time>
      </trkpt>
      <trkpt lat="47.15422" lon="4.64975">
        <ele>476.84931336253</ele>
        <time>2022-03-23T18:20:35.070Z</time>
      </trkpt>
      <trkpt lat="47.15397" lon="4.64983">
        <ele>477.54465846217</ele>
        <time>2022-03-23T18:20:49.408Z</time>
      </trkpt>
      <trkpt lat="47.15376" lon="4.64986">
        <ele>478.27056566565</ele>
        <time>2022-03-23T18:21:03.774Z</time>
      </trkpt>
      <trkpt lat="47.15361" lon="4.64986">
        <ele>479.10768009548</ele>
        <time>2022-03-23T18:21:18.160Z</time>
      </trkpt>
      <trkpt lat="47.15344" lon="4.64988">
        <ele>479.9682899665</ele>
        <time>2022-03-23T18:21:32.569Z</time>
      </trkpt>
      <trkpt lat="47.15328" lon="4.64992">
        <ele>480.84868436572</ele>
        <time>2022-03-23T18:21:47.000Z</time>
      </trkpt>
      <trkpt lat="47.15305" lon="4.64998">
        <ele>481.9034671165</ele>
        <time>2022-03-23T18:22:01.462Z</time>
      </trkpt>
      <trkpt lat="47.15274" lon="4.65016">
        <ele>483.10294548314</ele>
        <time>2022-03-23T18:22:15.968Z</time>
      </trkpt>
      <trkpt lat="47.15233" lon="4.65043">
        <ele>484.33074933749</ele>
        <time>2022-03-23T18:22:30.534Z</time>
      </trkpt>
      <trkpt lat="47.15225" lon="4.65051">
        <ele>485.4964427348</ele>
        <time>2022-03-23T18:22:45.113Z</time>
      </trkpt>
      <trkpt lat="47.15211" lon="4.65072">
        <ele>486.79760504141</ele>
        <time>2022-03-23T18:22:59.719Z</time>
      </trkpt>
      <trkpt lat="47.15198" lon="4.65088">
        <ele>488.03150800486</ele>
        <time>2022-03-23T18:23:14.348Z</time>
      </trkpt>
      <trkpt lat="47.15197" lon="4.65089">
        <ele>490.32913855885</ele>
        <time>2022-03-23T18:23:28.978Z</time>
      </trkpt>
      <trkpt lat="47.15197" lon="4.65089">
        <ele>491.5046965769</ele>
        <time>2022-03-23T18:23:43.608Z</time>
      </trkpt>
      <trkpt lat="47.15197" lon="4.65089">
        <ele>492.69905578549</ele>
        <time>2022-03-23T18:23:58.239Z</time>
      </trkpt>
      <trkpt lat="47.15195" lon="4.65091">
        <ele>493.92282241777</ele>
        <time>2022-03-23T18:24:12.873Z</time>
      </trkpt>
      <trkpt lat="47.15192" lon="4.65093">
        <ele>495.16160618177</ele>
        <time>2022-03-23T18:24:27.511Z</time>
      </trkpt>
      <trkpt lat="47.15183" lon="4.65098">
        <ele>496.450491784</ele>
        <time>2022-03-23T18:24:42.162Z</time>
      </trkpt>
      <trkpt lat="47.15183" lon="4.65106">
        <ele>497.80139525767</ele>
        <time>2022-03-23T18:24:56.820Z</time>
      </trkpt>
      <trkpt lat="47.15183" lon="4.65121">
        <ele>499.21621847572</ele>
        <time>2022-03-23T18:25:11.492Z</time>
      </trkpt>
      <trkpt lat="47.15181" lon="4.65148">
        <ele>500.72998684215</ele>
        <time>2022-03-23T18:25:26.189Z</time>
      </trkpt>
      <trkpt lat="47.15173" lon="4.65181">
        <ele>502.30291097284</ele>
        <time>2022-03-23T18:25:40.918Z</time>
      </trkpt>
      <trkpt lat="47.15157" lon="4.6522">
        <ele>503.88873989664</ele>
        <time>2022-03-23T18:25:55.688Z</time>
      </trkpt>
      <trkpt lat="47.1515" lon="4.65241">
        <ele>505.22428846751</ele>
        <time>2022-03-23T18:26:10.479Z</time>
      </trkpt>
      <trkpt lat="47.15148" lon="4.65265">
        <ele>506.47181527972</ele>
        <time>2022-03-23T18:26:25.292Z</time>
      </trkpt>
      <trkpt lat="47.15144" lon="4.65289">
        <ele>507.65460901661</ele>
        <time>2022-03-23T18:26:40.128Z</time>
      </trkpt>
      <trkpt lat="47.15137" lon="4.65304">
        <ele>508.77918509282</ele>
        <time>2022-03-23T18:26:54.980Z</time>
      </trkpt>
      <trkpt lat="47.15135" lon="4.65308">
        <ele>509.86583761027</ele>
        <time>2022-03-23T18:27:09.837Z</time>
      </trkpt>
      <trkpt lat="47.15134" lon="4.65309">
        <ele>511.93995604187</ele>
        <time>2022-03-23T18:27:24.695Z</time>
      </trkpt>
      <trkpt lat="47.15134" lon="4.65309">
        <ele>512.93664904524</ele>
        <time>2022-03-23T18:27:39.554Z</time>
      </trkpt>
      <trkpt lat="47.15129" lon="4.65317">
        <ele>513.91294495485</ele>
        <time>2022-03-23T18:27:54.422Z</time>
      </trkpt>
      <trkpt lat="47.15126" lon="4.65322">
        <ele>514.87331641842</ele>
        <time>2022-03-23T18:28:09.296Z</time>
      </trkpt>
      <trkpt lat="47.15117" lon="4.65322">
        <ele>515.82137584848</ele>
        <time>2022-03-23T18:28:24.182Z</time>
      </trkpt>
      <trkpt lat="47.15075" lon="4.65323">
        <ele>516.852833402</ele>
        <time>2022-03-23T18:28:39.124Z</time>
      </trkpt>
      <trkpt lat="47.15035" lon="4.65324">
        <ele>517.92551743265</ele>
        <time>2022-03-23T18:28:54.120Z</time>
      </trkpt>
      <trkpt lat="47.15019" lon="4.65322">
        <ele>518.91043812497</ele>
        <time>2022-03-23T18:29:09.137Z</time>
      </trkpt>
      <trkpt lat="47.15003" lon="4.65322">
        <ele>519.84328549363</ele>
        <time>2022-03-23T18:29:24.175Z</time>
      </trkpt>
      <trkpt lat="47.14923" lon="4.65331">
        <ele>520.97693614659</ele>
        <time>2022-03-23T18:29:39.320Z</time>
      </trkpt>
      <trkpt lat="47.14863" lon="4.65338">
        <ele>522.00606205251</ele>
        <time>2022-03-23T18:29:54.546Z</time>
      </trkpt>
      <trkpt lat="47.14852" lon="4.65334">
        <ele>522.82897753606</ele>
        <time>2022-03-23T18:30:09.787Z</time>
      </trkpt>
      <trkpt lat="47.14837" lon="4.65321">
        <ele>523.60221935791</ele>
        <time>2022-03-23T18:30:25.051Z</time>
      </trkpt>
      <trkpt lat="47.14818" lon="4.65302">
        <ele>524.33902783283</ele>
        <time>2022-03-23T18:30:40.346Z</time>
      </trkpt>
      <trkpt lat="47.14804" lon="4.6529">
        <ele>525.06930068982</ele>
        <time>2022-03-23T18:30:55.662Z</time>
      </trkpt>
      <trkpt lat="47.14787" lon="4.65282">
        <ele>525.75763363451</ele>
        <time>2022-03-23T18:31:11.002Z</time>
      </trkpt>
      <trkpt lat="47.1477" lon="4.65276">
        <ele>526.37686578361</ele>
        <time>2022-03-23T18:31:26.366Z</time>
      </trkpt>
      <trkpt lat="47.14761" lon="4.6527">
        <ele>526.92212367567</ele>
        <time>2022-03-23T18:31:41.743Z</time>
      </trkpt>
      <trkpt lat="47.14739" lon="4.6526">
        <ele>527.40663287435</ele>
        <time>2022-03-23T18:31:57.151Z</time>
      </trkpt>
      <trkpt lat="47.1473" lon="4.65259">
        <ele>527.89632495387</ele>
        <time>2022-03-23T18:32:12.571Z</time>
      </trkpt>
      <trkpt lat="47.14716" lon="4.65272">
        <ele>528.41457113822</ele>
        <time>2022-03-23T18:32:28.013Z</time>
      </trkpt>
      <trkpt lat="47.14714" lon="4.65275">
        <ele>528.85062637169</ele>
        <time>2022-03-23T18:32:43.458Z</time>
      </trkpt>
      <trkpt lat="47.14706" lon="4.65278">
        <ele>529.25831293122</ele>
        <time>2022-03-23T18:32:58.915Z</time>
      </trkpt>
      <trkpt lat="47.14648" lon="4.65264">
        <ele>529.61629854756</ele>
        <time>2022-03-23T18:33:14.450Z</time>
      </trkpt>
      <trkpt lat="47.14634" lon="4.65265">
        <ele>529.93997463917</ele>
        <time>2022-03-23T18:33:30.004Z</time>
      </trkpt>
      <trkpt lat="47.14628" lon="4.65264">
        <ele>530.2054049311</ele>
        <time>2022-03-23T18:33:45.566Z</time>
      </trkpt>
      <trkpt lat="47.14615" lon="4.65259">
        <ele>530.4287609691</ele>
        <time>2022-03-23T18:34:01.146Z</time>
      </trkpt>
      <trkpt lat="47.14594" lon="4.65246">
        <ele>530.56241974788</ele>
        <time>2022-03-23T18:34:16.756Z</time>
      </trkpt>
      <trkpt lat="47.14585" lon="4.65246">
        <ele>530.70230934709</ele>
        <time>2022-03-23T18:34:32.378Z</time>
      </trkpt>
      <trkpt lat="47.14571" lon="4.65256">
        <ele>530.87652019123</ele>
        <time>2022-03-23T18:34:48.021Z</time>
      </trkpt>
      <trkpt lat="47.14546" lon="4.65288">
        <ele>530.97979207624</ele>
        <time>2022-03-23T18:35:03.708Z</time>
      </trkpt>
      <trkpt lat="47.14523" lon="4.65303">
        <ele>530.92832022928</ele>
        <time>2022-03-23T18:35:19.429Z</time>
      </trkpt>
      <trkpt lat="47.1449" lon="4.65322">
        <ele>530.68126446314</ele>
        <time>2022-03-23T18:35:35.197Z</time>
      </trkpt>
      <trkpt lat="47.14475" lon="4.65332">
        <ele>530.35284538822</ele>
        <time>2022-03-23T18:35:50.987Z</time>
      </trkpt>
      <trkpt lat="47.14458" lon="4.65347">
        <ele>529.97638911038</ele>
        <time>2022-03-23T18:36:06.803Z</time>
      </trkpt>
      <trkpt lat="47.1445" lon="4.65358">
        <ele>529.53551596559</ele>
        <time>2022-03-23T18:36:22.634Z</time>
      </trkpt>
      <trkpt lat="47.14441" lon="4.6537">
        <ele>529.03744589884</ele>
        <time>2022-03-23T18:36:38.481Z</time>
      </trkpt>
      <trkpt lat="47.14438" lon="4.65372">
        <ele>528.40453849018</ele>
        <time>2022-03-23T18:36:54.333Z</time>
      </trkpt>
      <trkpt lat="47.14419" lon="4.6538">
        <ele>527.60783368529</ele>
        <time>2022-03-23T18:37:10.211Z</time>
      </trkpt>
      <trkpt lat="47.14405" lon="4.65383">
        <ele>526.79783154842</ele>
        <time>2022-03-23T18:37:26.108Z</time>
      </trkpt>
      <trkpt lat="47.14388" lon="4.65363">
        <ele>525.79087250708</ele>
        <time>2022-03-23T18:37:42.034Z</time>
      </trkpt>
      <trkpt lat="47.1437" lon="4.65343">
        <ele>524.77338213541</ele>
        <time>2022-03-23T18:37:57.990Z</time>
      </trkpt>
      <trkpt lat="47.14331" lon="4.65308">
        <ele>523.71250637669</ele>
        <time>2022-03-23T18:38:14.007Z</time>
      </trkpt>
      <trkpt lat="47.14315" lon="4.65298">
        <ele>522.81264680976</ele>
        <time>2022-03-23T18:38:30.047Z</time>
      </trkpt>
      <trkpt lat="47.14293" lon="4.65295">
        <ele>521.94155613306</ele>
        <time>2022-03-23T18:38:46.117Z</time>
      </trkpt>
      <trkpt lat="47.14278" lon="4.65292">
        <ele>521.15711284736</ele>
        <time>2022-03-23T18:39:02.207Z</time>
      </trkpt>
      <trkpt lat="47.14269" lon="4.65287">
        <ele>520.44213786776</ele>
        <time>2022-03-23T18:39:18.310Z</time>
      </trkpt>
      <trkpt lat="47.14268" lon="4.65286">
        <ele>519.80561319143</ele>
        <time>2022-03-23T18:39:34.414Z</time>
      </trkpt>
      <trkpt lat="47.14268" lon="4.65286">
        <ele>518.72825543112</ele>
        <time>2022-03-23T18:39:50.518Z</time>
      </trkpt>
      <trkpt lat="47.14263" lon="4.65281">
        <ele>518.26200933382</ele>
        <time>2022-03-23T18:40:06.631Z</time>
      </trkpt>
      <trkpt lat="47.14266" lon="4.65281">
        <ele>517.88404861505</ele>
        <time>2022-03-23T18:40:22.748Z</time>
      </trkpt>
      <trkpt lat="47.14298" lon="4.65271">
        <ele>517.53488072094</ele>
        <time>2022-03-23T18:40:38.908Z</time>
      </trkpt>
      <trkpt lat="47.14351" lon="4.65255">
        <ele>517.31011139592</ele>
        <time>2022-03-23T18:40:55.140Z</time>
      </trkpt>
      <trkpt lat="47.14374" lon="4.65248">
        <ele>517.08536686065</ele>
        <time>2022-03-23T18:41:11.404Z</time>
      </trkpt>
      <trkpt lat="47.14383" lon="4.65243">
        <ele>516.90070908425</ele>
        <time>2022-03-23T18:41:27.681Z</time>
      </trkpt>
      <trkpt lat="47.14461" lon="4.65175">
        <ele>516.86768436863</ele>
        <time>2022-03-23T18:41:44.079Z</time>
      </trkpt>
      <trkpt lat="47.14466" lon="4.65164">
        <ele>516.72087309094</ele>
        <time>2022-03-23T18:42:00.489Z</time>
      </trkpt>
      <trkpt lat="47.14472" lon="4.65154">
        <ele>516.56618128524</ele>
        <time>2022-03-23T18:42:16.911Z</time>
      </trkpt>
      <trkpt lat="47.14487" lon="4.65135">
        <ele>516.4630357237</ele>
        <time>2022-03-23T18:42:33.359Z</time>
      </trkpt>
      <trkpt lat="47.14495" lon="4.65115">
        <ele>516.25882768135</ele>
        <time>2022-03-23T18:42:49.828Z</time>
      </trkpt>
      <trkpt lat="47.14521" lon="4.65062">
        <ele>516.01507687972</ele>
        <time>2022-03-23T18:43:06.357Z</time>
      </trkpt>
      <trkpt lat="47.14543" lon="4.65014">
        <ele>515.85549654116</ele>
        <time>2022-03-23T18:43:22.938Z</time>
      </trkpt>
      <trkpt lat="47.14558" lon="4.6497">
        <ele>515.58336272121</ele>
        <time>2022-03-23T18:43:39.564Z</time>
      </trkpt>
      <trkpt lat="47.14566" lon="4.64953">
        <ele>515.2910840352</ele>
        <time>2022-03-23T18:43:56.209Z</time>
      </trkpt>
      <trkpt lat="47.14575" lon="4.64936">
        <ele>514.94721813898</ele>
        <time>2022-03-23T18:44:12.874Z</time>
      </trkpt>
      <trkpt lat="47.14584" lon="4.64923">
        <ele>514.54401493111</ele>
        <time>2022-03-23T18:44:29.555Z</time>
      </trkpt>
      <trkpt lat="47.14603" lon="4.64907">
        <ele>514.10381969608</ele>
        <time>2022-03-23T18:44:46.266Z</time>
      </trkpt>
      <trkpt lat="47.14619" lon="4.64894">
        <ele>513.60710602992</ele>
        <time>2022-03-23T18:45:03.001Z</time>
      </trkpt>
      <trkpt lat="47.14638" lon="4.64873">
        <ele>513.02265903319</ele>
        <time>2022-03-23T18:45:19.768Z</time>
      </trkpt>
      <trkpt lat="47.14668" lon="4.64819">
        <ele>512.19297609148</ele>
        <time>2022-03-23T18:45:36.598Z</time>
      </trkpt>
      <trkpt lat="47.14689" lon="4.64776">
        <ele>511.48021932207</ele>
        <time>2022-03-23T18:45:53.476Z</time>
      </trkpt>
      <trkpt lat="47.14701" lon="4.64756">
        <ele>510.81161097261</ele>
        <time>2022-03-23T18:46:10.379Z</time>
      </trkpt>
      <trkpt lat="47.14715" lon="4.64741">
        <ele>510.16921359226</ele>
        <time>2022-03-23T18:46:27.305Z</time>
      </trkpt>
      <trkpt lat="47.14724" lon="4.64731">
        <ele>509.4295473495</ele>
        <time>2022-03-23T18:46:44.246Z</time>
      </trkpt>
      <trkpt lat="47.1474" lon="4.64703">
        <ele>508.55342645011</ele>
        <time>2022-03-23T18:47:01.220Z</time>
      </trkpt>
      <trkpt lat="47.1475" lon="4.64676">
        <ele>507.63572316075</ele>
        <time>2022-03-23T18:47:18.222Z</time>
      </trkpt>
      <trkpt lat="47.14758" lon="4.64634">
        <ele>506.58400654109</ele>
        <time>2022-03-23T18:47:35.264Z</time>
      </trkpt>
      <trkpt lat="47.14758" lon="4.64624">
        <ele>505.79140447609</ele>
        <time>2022-03-23T18:47:52.315Z</time>
      </trkpt>
      <trkpt lat="47.14762" lon="4.64613">
        <ele>505.0718971494</ele>
        <time>2022-03-23T18:48:09.377Z</time>
      </trkpt>
      <trkpt lat="47.14763" lon="4.64612">
        <ele>504.48301577657</ele>
        <time>2022-03-23T18:48:26.441Z</time>
      </trkpt>
      <trkpt lat="47.14782" lon="4.64593">
        <ele>503.49068506178</ele>
        <time>2022-03-23T18:48:43.535Z</time>
      </trkpt>
      <trkpt lat="47.14804" lon="4.64561">
        <ele>503.15110133139</ele>
        <time>2022-03-23T18:49:00.671Z</time>
      </trkpt>
      <trkpt lat="47.1485" lon="4.64513">
        <ele>502.95124263754</ele>
        <time>2022-03-23T18:49:17.882Z</time>
      </trkpt>
      <trkpt lat="47.14867" lon="4.64497">
        <ele>502.72523881746</ele>
        <time>2022-03-23T18:49:35.120Z</time>
      </trkpt>
      <trkpt lat="47.14917" lon="4.64452">
        <ele>502.44175912237</ele>
        <time>2022-03-23T18:49:52.436Z</time>
      </trkpt>
      <trkpt lat="47.14954" lon="4.6442">
        <ele>502.31532672185</ele>
        <time>2022-03-23T18:50:09.810Z</time>
      </trkpt>
      <trkpt lat="47.1498" lon="4.64391">
        <ele>502.39731349702</ele>
        <time>2022-03-23T18:50:27.227Z</time>
      </trkpt>
      <trkpt lat="47.15002" lon="4.64361">
        <ele>502.47633693089</ele>
        <time>2022-03-23T18:50:44.684Z</time>
      </trkpt>
      <trkpt lat="47.15011" lon="4.64347">
        <ele>502.54258331179</ele>
        <time>2022-03-23T18:51:02.159Z</time>
      </trkpt>
      <trkpt lat="47.15021" lon="4.6434">
        <ele>502.74480814579</ele>
        <time>2022-03-23T18:51:19.649Z</time>
      </trkpt>
      <trkpt lat="47.15035" lon="4.6433">
        <ele>503.00048332106</ele>
        <time>2022-03-23T18:51:37.159Z</time>
      </trkpt>
      <trkpt lat="47.15043" lon="4.64321">
        <ele>503.17444363875</ele>
        <time>2022-03-23T18:51:54.683Z</time>
      </trkpt>
      <trkpt lat="47.15051" lon="4.64312">
        <ele>503.31856219892</ele>
        <time>2022-03-23T18:52:12.220Z</time>
      </trkpt>
      <trkpt lat="47.1506" lon="4.64296">
        <ele>503.35289853397</ele>
        <time>2022-03-23T18:52:29.776Z</time>
      </trkpt>
      <trkpt lat="47.15071" lon="4.64282">
        <ele>503.5197042541</ele>
        <time>2022-03-23T18:52:47.352Z</time>
      </trkpt>
      <trkpt lat="47.151" lon="4.64257">
        <ele>503.64863306376</ele>
        <time>2022-03-23T18:53:04.972Z</time>
      </trkpt>
      <trkpt lat="47.15121" lon="4.64243">
        <ele>503.72938294435</ele>
        <time>2022-03-23T18:53:22.623Z</time>
      </trkpt>
      <trkpt lat="47.15145" lon="4.64231">
        <ele>503.7954391914</ele>
        <time>2022-03-23T18:53:40.308Z</time>
      </trkpt>
      <trkpt lat="47.15205" lon="4.64215">
        <ele>503.83658761015</ele>
        <time>2022-03-23T18:53:58.074Z</time>
      </trkpt>
      <trkpt lat="47.15224" lon="4.64209">
        <ele>503.68840126703</ele>
        <time>2022-03-23T18:54:15.866Z</time>
      </trkpt>
      <trkpt lat="47.1524" lon="4.642">
        <ele>503.3720328587</ele>
        <time>2022-03-23T18:54:33.681Z</time>
      </trkpt>
      <trkpt lat="47.15273" lon="4.64181">
        <ele>502.83769257866</ele>
        <time>2022-03-23T18:54:51.544Z</time>
      </trkpt>
      <trkpt lat="47.15312" lon="4.64161">
        <ele>501.99086482987</ele>
        <time>2022-03-23T18:55:09.462Z</time>
      </trkpt>
      <trkpt lat="47.15325" lon="4.64157">
        <ele>501.16327513441</ele>
        <time>2022-03-23T18:55:27.397Z</time>
      </trkpt>
      <trkpt lat="47.15396" lon="4.64162">
        <ele>500.18368654299</ele>
        <time>2022-03-23T18:55:45.427Z</time>
      </trkpt>
      <trkpt lat="47.15414" lon="4.64164">
        <ele>498.89541443974</ele>
        <time>2022-03-23T18:56:03.481Z</time>
      </trkpt>
      <trkpt lat="47.15428" lon="4.64165">
        <ele>497.28388200944</ele>
        <time>2022-03-23T18:56:21.554Z</time>
      </trkpt>
      <trkpt lat="47.15434" lon="4.64155">
        <ele>495.26534697025</ele>
        <time>2022-03-23T18:56:39.639Z</time>
      </trkpt>
      <trkpt lat="47.15458" lon="4.64129">
        <ele>492.73941811143</ele>
        <time>2022-03-23T18:56:57.764Z</time>
      </trkpt>
      <trkpt lat="47.15469" lon="4.6412">
        <ele>490.12225378562</ele>
        <time>2022-03-23T18:57:15.906Z</time>
      </trkpt>
      <trkpt lat="47.15509" lon="4.641">
        <ele>487.10440830836</ele>
        <time>2022-03-23T18:57:34.104Z</time>
      </trkpt>
      <trkpt lat="47.15539" lon="4.64087">
        <ele>483.78098626663</ele>
        <time>2022-03-23T18:57:52.344Z</time>
      </trkpt>
      <trkpt lat="47.15591" lon="4.64066">
        <ele>479.9451381809</ele>
        <time>2022-03-23T18:58:10.656Z</time>
      </trkpt>
      <trkpt lat="47.15622" lon="4.64063">
        <ele>475.90447452439</ele>
        <time>2022-03-23T18:58:29.009Z</time>
      </trkpt>
      <trkpt lat="47.1563" lon="4.64054">
        <ele>471.45410618397</ele>
        <time>2022-03-23T18:58:47.376Z</time>
      </trkpt>
      <trkpt lat="47.15635" lon="4.64045">
        <ele>466.69129385514</ele>
        <time>2022-03-23T18:59:05.753Z</time>
      </trkpt>
      <trkpt lat="47.15639" lon="4.64024">
        <ele>461.48090093106</ele>
        <time>2022-03-23T18:59:24.150Z</time>
      </trkpt>
      <trkpt lat="47.15639" lon="4.64005">
        <ele>456.12603189164</ele>
        <time>2022-03-23T18:59:42.564Z</time>
      </trkpt>
      <trkpt lat="47.15641" lon="4.63954">
        <ele>450.43815220394</ele>
        <time>2022-03-23T19:00:01.025Z</time>
      </trkpt>
      <trkpt lat="47.15646" lon="4.63926">
        <ele>444.73025562995</ele>
        <time>2022-03-23T19:00:19.512Z</time>
      </trkpt>
      <trkpt lat="47.15651" lon="4.63895">
        <ele>438.77080483795</ele>
        <time>2022-03-23T19:00:38.028Z</time>
      </trkpt>
      <trkpt lat="47.15665" lon="4.63838">
        <ele>432.65666902636</ele>
        <time>2022-03-23T19:00:56.599Z</time>
      </trkpt>
      <trkpt lat="47.15685" lon="4.63755">
        <ele>426.25360762496</ele>
        <time>2022-03-23T19:01:15.250Z</time>
      </trkpt>
      <trkpt lat="47.15712" lon="4.6363">
        <ele>419.55862672431</ele>
        <time>2022-03-23T19:01:34.021Z</time>
      </trkpt>
      <trkpt lat="47.15741" lon="4.63488">
        <ele>413.44174206404</ele>
        <time>2022-03-23T19:01:52.927Z</time>
      </trkpt>
      <trkpt lat="47.15774" lon="4.63342">
        <ele>407.87036153041</ele>
        <time>2022-03-23T19:02:11.973Z</time>
      </trkpt>
      <trkpt lat="47.15774" lon="4.63342">
        <ele>403.50727734472</ele>
        <time>2022-03-23T19:02:31.019Z</time>
      </trkpt>
      <trkpt lat="47.15775" lon="4.63341">
        <ele>399.50747228958</ele>
        <time>2022-03-23T19:02:50.066Z</time>
      </trkpt>
      <trkpt lat="47.15775" lon="4.63341">
        <ele>395.90978613557</ele>
        <time>2022-03-23T19:03:09.113Z</time>
      </trkpt>
      <trkpt lat="47.15777" lon="4.6333">
        <ele>392.68688926156</ele>
        <time>2022-03-23T19:03:28.171Z</time>
      </trkpt>
      <trkpt lat="47.15778" lon="4.63324">
        <ele>389.91761595487</ele>
        <time>2022-03-23T19:03:47.234Z</time>
      </trkpt>
      <trkpt lat="47.15745" lon="4.63298">
        <ele>387.55397219822</ele>
        <time>2022-03-23T19:04:06.347Z</time>
      </trkpt>
      <trkpt lat="47.1571" lon="4.63268">
        <ele>385.66148862911</ele>
        <time>2022-03-23T19:04:25.514Z</time>
      </trkpt>
      <trkpt lat="47.15703" lon="4.63259">
        <ele>384.17664053728</ele>
        <time>2022-03-23T19:04:44.694Z</time>
      </trkpt>
      <trkpt lat="47.15698" lon="4.63246">
        <ele>383.07506410246</ele>
        <time>2022-03-23T19:05:03.887Z</time>
      </trkpt>
      <trkpt lat="47.15689" lon="4.63219">
        <ele>382.3494723027</ele>
        <time>2022-03-23T19:05:23.108Z</time>
      </trkpt>
      <trkpt lat="47.15677" lon="4.63173">
        <ele>381.99309007101</ele>
        <time>2022-03-23T19:05:42.374Z</time>
      </trkpt>
      <trkpt lat="47.15677" lon="4.63158">
        <ele>381.89405871234</ele>
        <time>2022-03-23T19:06:01.653Z</time>
      </trkpt>
      <trkpt lat="47.15678" lon="4.63144">
        <ele>382.05239026514</ele>
        <time>2022-03-23T19:06:20.945Z</time>
      </trkpt>
      <trkpt lat="47.15686" lon="4.63087">
        <ele>382.57632904523</ele>
        <time>2022-03-23T19:06:40.290Z</time>
      </trkpt>
      <trkpt lat="47.15685" lon="4.63054">
        <ele>383.14789299558</ele>
        <time>2022-03-23T19:06:59.665Z</time>
      </trkpt>
      <trkpt lat="47.15683" lon="4.63045">
        <ele>383.80116079844</ele>
        <time>2022-03-23T19:07:19.049Z</time>
      </trkpt>
      <trkpt lat="47.15668" lon="4.63049">
        <ele>384.64179783349</ele>
        <time>2022-03-23T19:07:38.453Z</time>
      </trkpt>
      <trkpt lat="47.15649" lon="4.63051">
        <ele>385.62102467323</ele>
        <time>2022-03-23T19:07:57.882Z</time>
      </trkpt>
      <trkpt lat="47.15633" lon="4.63049">
        <ele>386.64318749324</ele>
        <time>2022-03-23T19:08:17.333Z</time>
      </trkpt>
      <trkpt lat="47.15597" lon="4.6303">
        <ele>387.89098881046</ele>
        <time>2022-03-23T19:08:36.835Z</time>
      </trkpt>
      <trkpt lat="47.15588" lon="4.63025">
        <ele>389.07998264663</ele>
        <time>2022-03-23T19:08:56.350Z</time>
      </trkpt>
      <trkpt lat="47.1556" lon="4.62997">
        <ele>390.36882528081</ele>
        <time>2022-03-23T19:09:15.910Z</time>
      </trkpt>
      <trkpt lat="47.15543" lon="4.62977">
        <ele>391.64004018425</ele>
        <time>2022-03-23T19:09:35.499Z</time>
      </trkpt>
      <trkpt lat="47.15505" lon="4.62931">
        <ele>393.0169804032</ele>
        <time>2022-03-23T19:09:55.154Z</time>
      </trkpt>
      <trkpt lat="47.15493" lon="4.6292">
        <ele>394.29241330419</ele>
        <time>2022-03-23T19:10:14.828Z</time>
      </trkpt>
      <trkpt lat="47.15481" lon="4.62915">
        <ele>395.54219415351</ele>
        <time>2022-03-23T19:10:34.518Z</time>
      </trkpt>
      <trkpt lat="47.15478" lon="4.62914">
        <ele>396.79878594639</ele>
        <time>2022-03-23T19:10:54.212Z</time>
      </trkpt>
      <trkpt lat="47.15447" lon="4.62905">
        <ele>398.12899824536</ele>
        <time>2022-03-23T19:11:13.949Z</time>
      </trkpt>
      <trkpt lat="47.15441" lon="4.62899">
        <ele>399.35854969849</ele>
        <time>2022-03-23T19:11:33.695Z</time>
      </trkpt>
      <trkpt lat="47.15429" lon="4.62882">
        <ele>400.60878425631</ele>
        <time>2022-03-23T19:11:53.464Z</time>
      </trkpt>
      <trkpt lat="47.15415" lon="4.62868">
        <ele>401.9047860146</ele>
        <time>2022-03-23T19:12:13.255Z</time>
      </trkpt>
      <trkpt lat="47.15384" lon="4.62847">
        <ele>403.16750207563</ele>
        <time>2022-03-23T19:12:33.092Z</time>
      </trkpt>
      <trkpt lat="47.15324" lon="4.62811">
        <ele>404.35556647794</ele>
        <time>2022-03-23T19:12:53.015Z</time>
      </trkpt>
      <trkpt lat="47.15243" lon="4.62761">
        <ele>405.51980790246</ele>
        <time>2022-03-23T19:13:13.055Z</time>
      </trkpt>
      <trkpt lat="47.15235" lon="4.62753">
        <ele>406.24035868128</ele>
        <time>2022-03-23T19:13:33.108Z</time>
      </trkpt>
      <trkpt lat="47.15216" lon="4.62731">
        <ele>406.85391705088</ele>
        <time>2022-03-23T19:13:53.194Z</time>
      </trkpt>
      <trkpt lat="47.15205" lon="4.62718">
        <ele>407.42985102458</ele>
        <time>2022-03-23T19:14:13.299Z</time>
      </trkpt>
      <trkpt lat="47.15174" lon="4.62697">
        <ele>407.96733010912</ele>
        <time>2022-03-23T19:14:33.449Z</time>
      </trkpt>
      <trkpt lat="47.15157" lon="4.6269">
        <ele>408.33541091004</ele>
        <time>2022-03-23T19:14:53.623Z</time>
      </trkpt>
      <trkpt lat="47.15112" lon="4.62682">
        <ele>408.61051752099</ele>
        <time>2022-03-23T19:15:13.857Z</time>
      </trkpt>
      <trkpt lat="47.15044" lon="4.62663">
        <ele>409.07361421111</ele>
        <time>2022-03-23T19:15:34.183Z</time>
      </trkpt>
      <trkpt lat="47.1498" lon="4.62642">
        <ele>409.78631023504</ele>
        <time>2022-03-23T19:15:54.597Z</time>
      </trkpt>
      <trkpt lat="47.14926" lon="4.62627">
        <ele>410.43337946022</ele>
        <time>2022-03-23T19:16:15.084Z</time>
      </trkpt>
      <trkpt lat="47.14913" lon="4.62624">
        <ele>407.56851127223</ele>
        <time>2022-03-23T19:16:35.589Z</time>
      </trkpt>
      <trkpt lat="47.14915" lon="4.62618">
        <ele>410.72831819862</ele>
        <time>2022-03-23T19:16:56.100Z</time>
      </trkpt>
      <trkpt lat="47.14921" lon="4.62584">
        <ele>410.85077275407</ele>
        <time>2022-03-23T19:17:16.643Z</time>
      </trkpt>
    </trkseg>
  </trk>
</gpx>